Observation data for McCamey on 05/26/2019      Previous  Date  Next       Current Mesonet Observations  Soil Data  Daily Summary Page  Observations in Plain Language
KMC4 260500Z 12011KT 24/19 A2993 RMK A01 T02420187  RH  071%=      5-min Rain = 0
KMC4 260501Z 12010KT 24/19 A2993 RMK A01 T02430188  RH  071%=      5-min Rain = 0
KMC4 260502Z 12011KT 24/19 A2993 RMK A01 T02430188  RH  072%=      5-min Rain = 0
KMC4 260503Z 12012KT 24/19 A2993 RMK A01 T02430188  RH  071%=      5-min Rain = 0
KMC4 260504Z 12011KT 24/19 A2993 RMK A01 T02420187  RH  071%=      5-min Rain = 0
KMC4 260505Z 12013KT 24/19 A2993 RMK A01 T02430187  RH  071%=      5-min Rain = 0
KMC4 260506Z 12011KT 24/19 A2993 RMK A01 T02420187  RH  071%=      5-min Rain = 0
KMC4 260507Z 12010KT 24/19 A2993 RMK A01 T02430187  RH  071%=      5-min Rain = 0
KMC4 260508Z 12010KT 24/19 A2993 RMK A01 T02430188  RH  071%=      5-min Rain = 0
KMC4 260509Z 12012KT 24/19 A2993 RMK A01 T02410187  RH  072%=      5-min Rain = 0
KMC4 260510Z 12013KT 24/19 A2993 RMK A01 T02420187  RH  071%=      5-min Rain = 0
KMC4 260511Z 12012KT 24/19 A2993 RMK A01 T02420187  RH  071%=      5-min Rain = 0
KMC4 260512Z 12012KT 24/19 A2993 RMK A01 T02420187  RH  071%=      5-min Rain = 0
KMC4 260513Z 12013KT 24/19 A2993 RMK A01 T02420186  RH  071%=      5-min Rain = 0
KMC4 260514Z 12012KT 24/19 A2993 RMK A01 T02430186  RH  071%=      5-min Rain = 0
KMC4 260515Z 12012KT 24/19 A2993 RMK A01 T02430186  RH  071%=      5-min Rain = 0
KMC4 260516Z 12010KT 24/19 A2993 RMK A01 T02430187  RH  071%=      5-min Rain = 0
KMC4 260517Z 11010KT 24/19 A2993 RMK A01 T02420187  RH  071%=      5-min Rain = 0
KMC4 260518Z 12012KT 24/19 A2992 RMK A01 T02420186  RH  071%=      5-min Rain = 0
KMC4 260519Z 12010KT 24/19 A2992 RMK A01 T02420186  RH  071%=      5-min Rain = 0
KMC4 260520Z 11011KT 24/19 A2992 RMK A01 T02420186  RH  071%=      5-min Rain = 0
KMC4 260521Z 12012KT 24/19 A2992 RMK A01 T02420186  RH  071%=      5-min Rain = 0
KMC4 260522Z 12011KT 24/19 A2993 RMK A01 T02420186  RH  071%=      5-min Rain = 0
KMC4 260523Z 12010KT 24/19 A2993 RMK A01 T02420186  RH  071%=      5-min Rain = 0
KMC4 260524Z 11008KT 24/19 A2993 RMK A01 T02420186  RH  071%=      5-min Rain = 0
KMC4 260525Z 11009KT 24/19 A2993 RMK A01 T02410186  RH  071%=      5-min Rain = 0
KMC4 260526Z 11009KT 24/19 A2993 RMK A01 T02400185  RH  071%=      5-min Rain = 0
KMC4 260527Z 11009KT 24/19 A2993 RMK A01 T02410185  RH  071%=      5-min Rain = 0
KMC4 260528Z 11010KT 24/19 A2993 RMK A01 T02420185  RH  071%=      5-min Rain = 0
KMC4 260529Z 11008KT 24/19 A2993 RMK A01 T02420185  RH  071%=      5-min Rain = 0
KMC4 260530Z 12009KT 24/19 A2993 RMK A01 T02410186  RH  071%=      5-min Rain = 0
KMC4 260531Z 11010KT 24/19 A2993 RMK A01 T02410185  RH  071%=      5-min Rain = 0
KMC4 260532Z 12010KT 24/19 A2992 RMK A01 T02410185  RH  071%=      5-min Rain = 0
KMC4 260533Z 12011KT 24/19 A2992 RMK A01 T02410185  RH  071%=      5-min Rain = 0
KMC4 260534Z 11010KT 24/19 A2992 RMK A01 T02410185  RH  071%=      5-min Rain = 0
KMC4 260535Z 12009KT 24/19 A2992 RMK A01 T02410185  RH  071%=      5-min Rain = 0
KMC4 260536Z 11011KT 24/18 A2992 RMK A01 T02400184  RH  071%=      5-min Rain = 0
KMC4 260537Z 12012KT 24/18 A2992 RMK A01 T02410184  RH  070%=      5-min Rain = 0
KMC4 260538Z 12012KT 24/18 A2992 RMK A01 T02410184  RH  070%=      5-min Rain = 0
KMC4 260539Z 11012KT 24/18 A2992 RMK A01 T02420183  RH  070%=      5-min Rain = 0
KMC4 260540Z 12011KT 24/18 A2992 RMK A01 T02430183  RH  069%=      5-min Rain = 0
KMC4 260541Z 12011KT 24/18 A2992 RMK A01 T02430183  RH  069%=      5-min Rain = 0
KMC4 260542Z 12011KT 24/18 A2992 RMK A01 T02430183  RH  069%=      5-min Rain = 0
KMC4 260543Z 12012KT 24/18 A2992 RMK A01 T02430184  RH  069%=      5-min Rain = 0
KMC4 260544Z 12011KT 24/18 A2992 RMK A01 T02430184  RH  069%=      5-min Rain = 0
KMC4 260545Z 11012KT 24/18 A2992 RMK A01 T02430183  RH  069%=      5-min Rain = 0
KMC4 260546Z 11009KT 24/18 A2992 RMK A01 T02430183  RH  069%=      5-min Rain = 0
KMC4 260547Z 12010KT 24/18 A2992 RMK A01 T02420184  RH  070%=      5-min Rain = 0
KMC4 260548Z 12009KT 24/18 A2992 RMK A01 T02410183  RH  070%=      5-min Rain = 0
KMC4 260549Z 12011KT 24/18 A2992 RMK A01 T02410183  RH  070%=      5-min Rain = 0
KMC4 260550Z 13010KT 24/18 A2992 RMK A01 T02410182  RH  070%=      5-min Rain = 0
KMC4 260551Z 13011KT 24/18 A2992 RMK A01 T02420183  RH  070%=      5-min Rain = 0
KMC4 260552Z 12011KT 24/18 A2992 RMK A01 T02410183  RH  070%=      5-min Rain = 0
KMC4 260553Z 13012KT 24/18 A2992 RMK A01 T02410182  RH  070%=      5-min Rain = 0
KMC4 260554Z 12012KT 24/18 A2992 RMK A01 T02410182  RH  069%=      5-min Rain = 0
KMC4 260555Z 13013KT 24/18 A2992 RMK A01 T02420181  RH  069%=      5-min Rain = 0
KMC4 260556Z 13011KT 24/18 A2992 RMK A01 T02430182  RH  069%=      5-min Rain = 0
KMC4 260557Z 13011KT 24/18 A2992 RMK A01 T02420182  RH  069%=      5-min Rain = 0
KMC4 260558Z 13013G18KT 24/18 A2992 RMK A01 T02410183  RH  070%=      5-min Rain = 0
KMC4 260559Z 13014KT 24/18 A2992 RMK A01 T02410180  RH  069%=      5-min Rain = 0
KMC4 260600Z 13012KT 24/18 A2992 RMK A01 T02420181  RH  069%=      5-min Rain = 0
KMC4 260601Z 13015KT 24/18 A2992 RMK A01 T02420181  RH  069%=      5-min Rain = 0
KMC4 260602Z 13014KT 24/18 A2992 RMK A01 T02420181  RH  069%=      5-min Rain = 0
KMC4 260603Z 13014G19KT 24/18 A2992 RMK A01 T02420181  RH  069%=      5-min Rain = 0
KMC4 260604Z 13014G19KT 24/18 A2992 RMK A01 T02420182  RH  069%=      5-min Rain = 0
KMC4 260605Z 13013KT 24/18 A2992 RMK A01 T02420183  RH  070%=      5-min Rain = 0
KMC4 260606Z 13014KT 24/18 A2992 RMK A01 T02410183  RH  070%=      5-min Rain = 0
KMC4 260607Z 13014KT 24/18 A2992 RMK A01 T02410183  RH  070%=      5-min Rain = 0
KMC4 260608Z 13015G22KT 24/18 A2992 RMK A01 T02410183  RH  070%=      5-min Rain = 0
KMC4 260609Z 13018KT 24/18 A2992 RMK A01 T02420183  RH  070%=      5-min Rain = 0
KMC4 260610Z 13017G22KT 24/18 A2992 RMK A01 T02430184  RH  070%=      5-min Rain = 0
KMC4 260611Z 13014KT 24/19 A2992 RMK A01 T02430185  RH  070%=      5-min Rain = 0
KMC4 260612Z 13015KT 24/19 A2992 RMK A01 T02430186  RH  071%=      5-min Rain = 0
KMC4 260613Z 13016KT 24/19 A2992 RMK A01 T02420186  RH  071%=      5-min Rain = 0
KMC4 260614Z 13016KT 24/19 A2992 RMK A01 T02420186  RH  071%=      5-min Rain = 0
KMC4 260615Z 13018G23KT 24/19 A2991 RMK A01 T02420186  RH  071%=      5-min Rain = 0
KMC4 260616Z 13015G22KT 24/19 A2991 RMK A01 T02430186  RH  071%=      5-min Rain = 0
KMC4 260617Z 13019KT 24/19 A2991 RMK A01 T02430187  RH  071%=      5-min Rain = 0
KMC4 260618Z 13017KT 24/19 A2991 RMK A01 T02440187  RH  071%=      5-min Rain = 0
KMC4 260619Z 14017KT 24/19 A2991 RMK A01 T02440188  RH  071%=      5-min Rain = 0
KMC4 260620Z 13017KT 24/19 A2991 RMK A01 T02430188  RH  071%=      5-min Rain = 0
KMC4 260621Z 13016G22KT 24/19 A2991 RMK A01 T02430189  RH  072%=      5-min Rain = 0
KMC4 260622Z 13017G22KT 24/19 A2991 RMK A01 T02430189  RH  072%=      5-min Rain = 0
KMC4 260623Z 13014KT 24/19 A2991 RMK A01 T02430190  RH  072%=      5-min Rain = 0
KMC4 260624Z 13014KT 24/19 A2991 RMK A01 T02420191  RH  073%=      5-min Rain = 0
KMC4 260625Z 13015KT 24/19 A2991 RMK A01 T02410191  RH  073%=      5-min Rain = 0
KMC4 260626Z 13015G20KT 24/19 A2991 RMK A01 T02410191  RH  074%=      5-min Rain = 0
KMC4 260627Z 13015G20KT 24/19 A2992 RMK A01 T02410191  RH  074%=      5-min Rain = 0
KMC4 260628Z 13013KT 24/19 A2991 RMK A01 T02410191  RH  074%=      5-min Rain = 0
KMC4 260629Z 13016KT 24/19 A2991 RMK A01 T02410192  RH  074%=      5-min Rain = 0
KMC4 260630Z 13016KT 24/19 A2991 RMK A01 T02410192  RH  074%=      5-min Rain = 0
KMC4 260631Z 13017G22KT 24/19 A2991 RMK A01 T02410191  RH  074%=      5-min Rain = 0
KMC4 260632Z 13017KT 24/19 A2991 RMK A01 T02420192  RH  074%=      5-min Rain = 0
KMC4 260633Z 13018KT 24/19 A2991 RMK A01 T02420192  RH  074%=      5-min Rain = 0
KMC4 260634Z 13014KT 24/19 A2991 RMK A01 T02420193  RH  074%=      5-min Rain = 0
KMC4 260635Z 14015G20KT 24/19 A2991 RMK A01 T02410194  RH  075%=      5-min Rain = 0
KMC4 260636Z 13015KT 24/19 A2991 RMK A01 T02400194  RH  075%=      5-min Rain = 0
KMC4 260637Z 13015KT 24/19 A2991 RMK A01 T02400194  RH  076%=      5-min Rain = 0
KMC4 260638Z 14015KT 24/19 A2991 RMK A01 T02390194  RH  076%=      5-min Rain = 0
KMC4 260639Z 13014KT 24/19 A2991 RMK A01 T02390194  RH  076%=      5-min Rain = 0
KMC4 260640Z 14015KT 24/19 A2991 RMK A01 T02390194  RH  076%=      5-min Rain = 0
KMC4 260641Z 13015KT 24/20 A2991 RMK A01 T02390195  RH  076%=      5-min Rain = 0
KMC4 260642Z 13016KT 24/19 A2991 RMK A01 T02380194  RH  076%=      5-min Rain = 0
KMC4 260643Z 14015KT 24/19 A2991 RMK A01 T02380194  RH  076%=      5-min Rain = 0
KMC4 260644Z 14015KT 24/20 A2991 RMK A01 T02380195  RH  076%=      5-min Rain = 0
KMC4 260645Z 14013KT 24/20 A2991 RMK A01 T02380195  RH  077%=      5-min Rain = 0
KMC4 260646Z 14014KT 24/20 A2991 RMK A01 T02380195  RH  077%=      5-min Rain = 0
KMC4 260647Z 14012KT 24/20 A2991 RMK A01 T02380196  RH  077%=      5-min Rain = 0
KMC4 260648Z 14013KT 24/20 A2991 RMK A01 T02360196  RH  078%=      5-min Rain = 0
KMC4 260649Z 14012KT 24/20 A2991 RMK A01 T02360196  RH  078%=      5-min Rain = 0
KMC4 260650Z 14014KT 24/20 A2991 RMK A01 T02360196  RH  078%=      5-min Rain = 0
KMC4 260651Z 14018KT 24/20 A2991 RMK A01 T02360196  RH  078%=      5-min Rain = 0
KMC4 260652Z 14017KT 24/20 A2991 RMK A01 T02370197  RH  078%=      5-min Rain = 0
KMC4 260653Z 14017KT 24/20 A2991 RMK A01 T02370197  RH  078%=      5-min Rain = 0
KMC4 260654Z 14017G23KT 24/20 A2991 RMK A01 T02380197  RH  078%=      5-min Rain = 0
KMC4 260655Z 15018KT 24/20 A2991 RMK A01 T02380197  RH  078%=      5-min Rain = 0
KMC4 260656Z 14016KT 24/20 A2991 RMK A01 T02380198  RH  078%=      5-min Rain = 0
KMC4 260657Z 14016KT 24/20 A2991 RMK A01 T02370197  RH  078%=      5-min Rain = 0
KMC4 260658Z 15018G23KT 24/20 A2991 RMK A01 T02380198  RH  078%=      5-min Rain = 0
KMC4 260659Z 15018KT 24/20 A2991 RMK A01 T02380198  RH  078%=      5-min Rain = 0
KMC4 260700Z 14021G28KT 24/20 A299 RMK A01 T02380197  RH  078%=      5-min Rain = 0
KMC4 260701Z 15020KT 24/20 A2991 RMK A01 T02380198  RH  078%=      5-min Rain = 0
KMC4 260702Z 15020G26KT 24/20 A299 RMK A01 T02390198  RH  078%=      5-min Rain = 0
KMC4 260703Z 15015KT 24/20 A2991 RMK A01 T02390198  RH  078%=      5-min Rain = 0
KMC4 260704Z 15017KT 24/20 A2991 RMK A01 T02380198  RH  078%=      5-min Rain = 0
KMC4 260705Z 14016KT 24/20 A2991 RMK A01 T02380198  RH  078%=      5-min Rain = 0
KMC4 260706Z 14014KT 24/20 A2991 RMK A01 T02380198  RH  078%=      5-min Rain = 0
KMC4 260707Z 14014KT 24/20 A2991 RMK A01 T02380199  RH  079%=      5-min Rain = 0
KMC4 260708Z 13013G18KT 24/20 A2991 RMK A01 T02370199  RH  079%=      5-min Rain = 0
KMC4 260709Z 14014KT 24/20 A2991 RMK A01 T02360198  RH  079%=      5-min Rain = 0
KMC4 260710Z 14011KT 24/20 A2991 RMK A01 T02350199  RH  080%=      5-min Rain = 0
KMC4 260711Z 13014KT 24/20 A2991 RMK A01 T02350199  RH  080%=      5-min Rain = 0
KMC4 260712Z 14013KT 24/20 A2991 RMK A01 T02350198  RH  080%=      5-min Rain = 0
KMC4 260713Z 14012KT 24/20 A2991 RMK A01 T02350199  RH  080%=      5-min Rain = 0
KMC4 260714Z 15015KT 24/20 A2991 RMK A01 T02350199  RH  080%=      5-min Rain = 0
KMC4 260715Z 14015KT 24/20 A2991 RMK A01 T02350199  RH  080%=      5-min Rain = 0
KMC4 260716Z 14016KT 24/20 A2991 RMK A01 T02350199  RH  080%=      5-min Rain = 0
KMC4 260717Z 15015KT 24/20 A2991 RMK A01 T02360199  RH  080%=      5-min Rain = 0
KMC4 260718Z 15011G16KT 24/20 A2991 RMK A01 T02360199  RH  080%=      5-min Rain = 0
KMC4 260719Z 15014KT 24/20 A2991 RMK A01 T02350199  RH  080%=      5-min Rain = 0
KMC4 260720Z 15017G23KT 23/20 A2991 RMK A01 T02340199  RH  080%=      5-min Rain = 0
KMC4 260721Z 15016G22KT 24/20 A2991 RMK A01 T02350198  RH  080%=      5-min Rain = 0
KMC4 260722Z 15016KT 24/20 A2991 RMK A01 T02350198  RH  080%=      5-min Rain = 0
KMC4 260723Z 15017KT 24/20 A2991 RMK A01 T02350199  RH  080%=      5-min Rain = 0
KMC4 260724Z 15015KT 24/20 A2991 RMK A01 T02350198  RH  080%=      5-min Rain = 0
KMC4 260725Z 15015KT 24/20 A2991 RMK A01 T02350199  RH  080%=      5-min Rain = 0
KMC4 260726Z 14017G22KT 24/20 A299 RMK A01 T02350199  RH  080%=      5-min Rain = 0
KMC4 260727Z 15015KT 24/20 A2991 RMK A01 T02350198  RH  080%=      5-min Rain = 0
KMC4 260728Z 15014G20KT 23/20 A2991 RMK A01 T02340198  RH  080%=      5-min Rain = 0
KMC4 260729Z 15017G22KT 24/20 A299 RMK A01 T02350198  RH  080%=      5-min Rain = 0
KMC4 260730Z 14013KT 24/20 A299 RMK A01 T02350199  RH  080%=      5-min Rain = 0
KMC4 260731Z 15012KT 24/20 A2991 RMK A01 T02350199  RH  080%=      5-min Rain = 0
KMC4 260732Z 16016KT 23/20 A299 RMK A01 T02340199  RH  081%=      5-min Rain = 0
KMC4 260733Z 15016KT 23/20 A299 RMK A01 T02340199  RH  081%=      5-min Rain = 0
KMC4 260734Z 14014KT 23/20 A299 RMK A01 T02340199  RH  081%=      5-min Rain = 0
KMC4 260735Z 15019G24KT 23/20 A299 RMK A01 T02340199  RH  081%=      5-min Rain = 0
KMC4 260736Z 15017KT 23/20 A299 RMK A01 T02340198  RH  080%=      5-min Rain = 0
KMC4 260737Z 14020G25KT 23/20 A299 RMK A01 T02340199  RH  081%=      5-min Rain = 0
KMC4 260738Z 15020KT 23/20 A299 RMK A01 T02340199  RH  081%=      5-min Rain = 0
KMC4 260739Z 15023KT 23/20 A299 RMK A01 T02340199  RH  080%=      5-min Rain = 0
KMC4 260740Z 15019KT 23/20 A299 RMK A01 T02340198  RH  080%=      5-min Rain = 0
KMC4 260741Z 15017KT 23/20 A299 RMK A01 T02340199  RH  080%=      5-min Rain = 0
KMC4 260742Z 15016G22KT 23/20 A299 RMK A01 T02340199  RH  081%=      5-min Rain = 0
KMC4 260743Z 15014KT 23/20 A299 RMK A01 T02330199  RH  081%=      5-min Rain = 0
KMC4 260744Z 14017G22KT 23/20 A299 RMK A01 T02330199  RH  081%=      5-min Rain = 0
KMC4 260745Z 15018KT 23/20 A299 RMK A01 T02320198  RH  081%=      5-min Rain = 0
KMC4 260746Z 15013KT 23/20 A299 RMK A01 T02330198  RH  081%=      5-min Rain = 0
KMC4 260747Z 15014G19KT 23/20 A299 RMK A01 T02320199  RH  081%=      5-min Rain = 0
KMC4 260748Z 16014G19KT 23/20 A299 RMK A01 T02320199  RH  082%=      5-min Rain = 0
KMC4 260749Z 15017KT 23/20 A2989 RMK A01 T02320199  RH  082%=      5-min Rain = 0
KMC4 260750Z 15014KT 23/20 A2989 RMK A01 T02320199  RH  082%=      5-min Rain = 0
KMC4 260751Z 15019G24KT 23/20 A2989 RMK A01 T02320199  RH  082%=      5-min Rain = 0
KMC4 260752Z 15018G24KT 23/20 A2989 RMK A01 T02320198  RH  081%=      5-min Rain = 0
KMC4 260753Z 16022G28KT 23/20 A2989 RMK A01 T02320198  RH  081%=      5-min Rain = 0
KMC4 260754Z 15021KT 23/20 A2989 RMK A01 T02320198  RH  081%=      5-min Rain = 0
KMC4 260755Z 15021KT 23/20 A2989 RMK A01 T02320198  RH  081%=      5-min Rain = 0
KMC4 260756Z 15019KT 23/20 A2989 RMK A01 T02330198  RH  081%=      5-min Rain = 0
KMC4 260757Z 15020KT 23/20 A2989 RMK A01 T02330198  RH  081%=      5-min Rain = 0
KMC4 260758Z 16021KT 23/20 A2989 RMK A01 T02320198  RH  081%=      5-min Rain = 0
KMC4 260759Z 15019KT 23/20 A2989 RMK A01 T02320198  RH  081%=      5-min Rain = 0
KMC4 260800Z 15020KT 23/20 A2989 RMK A01 T02320198  RH  081%=      5-min Rain = 0
KMC4 260801Z 15020KT 23/20 A2989 RMK A01 T02320198  RH  081%=      5-min Rain = 0
KMC4 260802Z 15019KT 23/20 A2989 RMK A01 T02320198  RH  081%=      5-min Rain = 0
KMC4 260803Z 15017KT 23/20 A2989 RMK A01 T02320198  RH  081%=      5-min Rain = 0
KMC4 260804Z 15016G23KT 23/20 A2989 RMK A01 T02320198  RH  081%=      5-min Rain = 0
KMC4 260805Z 15016KT 23/20 A2989 RMK A01 T02320198  RH  081%=      5-min Rain = 0
KMC4 260806Z 15016G21KT 23/20 A2989 RMK A01 T02320198  RH  081%=      5-min Rain = 0
KMC4 260807Z 15017G22KT 23/20 A2989 RMK A01 T02310198  RH  082%=      5-min Rain = 0
KMC4 260808Z 15020KT 23/20 A2989 RMK A01 T02310198  RH  082%=      5-min Rain = 0
KMC4 260809Z 15023KT 23/20 A2988 RMK A01 T02310198  RH  082%=      5-min Rain = 0
KMC4 260810Z 15021KT 23/20 A2989 RMK A01 T02310198  RH  081%=      5-min Rain = 0
KMC4 260811Z 15023G29KT 23/20 A2988 RMK A01 T02320198  RH  082%=      5-min Rain = 0
KMC4 260812Z 15022KT 23/20 A2989 RMK A01 T02310198  RH  081%=      5-min Rain = 0
KMC4 260813Z 15021KT 23/20 A2989 RMK A01 T02310198  RH  081%=      5-min Rain = 0
KMC4 260814Z 14020G27KT 23/20 A2989 RMK A01 T02310198  RH  081%=      5-min Rain = 0
KMC4 260815Z 14019G27KT 23/20 A2989 RMK A01 T02310198  RH  082%=      5-min Rain = 0
KMC4 260816Z 15019KT 23/20 A2989 RMK A01 T02310198  RH  082%=      5-min Rain = 0
KMC4 260817Z 15018KT 23/20 A2989 RMK A01 T02310198  RH  082%=      5-min Rain = 0
KMC4 260818Z 15019G25KT 23/20 A2989 RMK A01 T02310198  RH  082%=      5-min Rain = 0
KMC4 260819Z 14020G27KT 23/20 A2989 RMK A01 T02300197  RH  082%=      5-min Rain = 0
KMC4 260820Z 15020KT 23/20 A2989 RMK A01 T02310198  RH  082%=      5-min Rain = 0
KMC4 260821Z 14019KT 23/20 A2989 RMK A01 T02300197  RH  082%=      5-min Rain = 0
KMC4 260822Z 14016KT 23/20 A2989 RMK A01 T02300198  RH  082%=      5-min Rain = 0
KMC4 260823Z 14017KT 23/20 A2989 RMK A01 T02290198  RH  082%=      5-min Rain = 0
KMC4 260824Z 15018G25KT 23/20 A2989 RMK A01 T02290198  RH  083%=      5-min Rain = 0
KMC4 260825Z 15020KT 23/20 A2989 RMK A01 T02290198  RH  083%=      5-min Rain = 0
KMC4 260826Z 15017KT 23/20 A2989 RMK A01 T02290197  RH  082%=      5-min Rain = 0
KMC4 260827Z 14020KT 23/20 A2989 RMK A01 T02290197  RH  082%=      5-min Rain = 0
KMC4 260828Z 15018KT 23/20 A2989 RMK A01 T02280197  RH  082%=      5-min Rain = 0
KMC4 260829Z 15018G23KT 23/20 A2989 RMK A01 T02290197  RH  082%=      5-min Rain = 0
KMC4 260830Z 15016KT 23/20 A2989 RMK A01 T02290197  RH  082%=      5-min Rain = 0
KMC4 260831Z 14013G20KT 23/20 A2989 RMK A01 T02280197  RH  083%=      5-min Rain = 0
KMC4 260832Z 14017KT 23/20 A2989 RMK A01 T02280197  RH  083%=      5-min Rain = 0
KMC4 260833Z 15017KT 23/20 A2989 RMK A01 T02280198  RH  083%=      5-min Rain = 0
KMC4 260834Z 14016G21KT 23/20 A2989 RMK A01 T02280198  RH  083%=      5-min Rain = 0
KMC4 260835Z 14020KT 23/20 A2989 RMK A01 T02280197  RH  083%=      5-min Rain = 0
KMC4 260836Z 15018KT 23/20 A2989 RMK A01 T02280197  RH  083%=      5-min Rain = 0
KMC4 260837Z 14019KT 23/20 A2989 RMK A01 T02280197  RH  082%=      5-min Rain = 0
KMC4 260838Z 14016KT 23/20 A2989 RMK A01 T02290197  RH  082%=      5-min Rain = 0
KMC4 260839Z 14015KT 23/20 A2989 RMK A01 T02290197  RH  082%=      5-min Rain = 0
KMC4 260840Z 14015G22KT 23/20 A2989 RMK A01 T02280197  RH  083%=      5-min Rain = 0
KMC4 260841Z 14015G20KT 23/20 A299 RMK A01 T02280197  RH  083%=      5-min Rain = 0
KMC4 260842Z 14016G21KT 23/20 A2989 RMK A01 T02270197  RH  083%=      5-min Rain = 0
KMC4 260843Z 14018G24KT 23/20 A2989 RMK A01 T02270197  RH  083%=      5-min Rain = 0
KMC4 260844Z 14016KT 23/20 A2989 RMK A01 T02270197  RH  083%=      5-min Rain = 0
KMC4 260845Z 14018KT 23/20 A2989 RMK A01 T02280197  RH  083%=      5-min Rain = 0
KMC4 260846Z 14017KT 23/20 A299 RMK A01 T02280197  RH  083%=      5-min Rain = 0
KMC4 260847Z 14018KT 23/20 A299 RMK A01 T02280197  RH  083%=      5-min Rain = 0
KMC4 260848Z 14018G25KT 23/20 A299 RMK A01 T02280197  RH  083%=      5-min Rain = 0
KMC4 260849Z 14017KT 23/20 A299 RMK A01 T02280196  RH  082%=      5-min Rain = 0
KMC4 260850Z 14014G20KT 23/20 A299 RMK A01 T02280197  RH  082%=      5-min Rain = 0
KMC4 260851Z 14014KT 23/20 A299 RMK A01 T02280197  RH  083%=      5-min Rain = 0
KMC4 260852Z 14015KT 23/20 A299 RMK A01 T02270197  RH  083%=      5-min Rain = 0
KMC4 260853Z 14016KT 23/20 A299 RMK A01 T02270197  RH  083%=      5-min Rain = 0
KMC4 260854Z 14015KT 23/20 A299 RMK A01 T02270196  RH  083%=      5-min Rain = 0
KMC4 260855Z 13017G23KT 23/20 A299 RMK A01 T02270196  RH  083%=      5-min Rain = 0
KMC4 260856Z 14020G26KT 23/20 A299 RMK A01 T02270196  RH  083%=      5-min Rain = 0
KMC4 260857Z 14016KT 23/20 A299 RMK A01 T02270196  RH  082%=      5-min Rain = 0
KMC4 260858Z 14021KT 23/20 A299 RMK A01 T02280196  RH  082%=      5-min Rain = 0
KMC4 260859Z 14018KT 23/20 A299 RMK A01 T02280196  RH  082%=      5-min Rain = 0
KMC4 260900Z 13016KT 23/20 A299 RMK A01 T02280197  RH  082%=      5-min Rain = 0
KMC4 260901Z 14015KT 23/20 A299 RMK A01 T02280197  RH  082%=      5-min Rain = 0
KMC4 260902Z 14018KT 23/20 A299 RMK A01 T02280197  RH  083%=      5-min Rain = 0
KMC4 260903Z 14019KT 23/20 A299 RMK A01 T02280196  RH  082%=      5-min Rain = 0
KMC4 260904Z 14017G23KT 23/20 A299 RMK A01 T02280196  RH  082%=      5-min Rain = 0
KMC4 260905Z 14015KT 23/20 A299 RMK A01 T02280196  RH  082%=      5-min Rain = 0
KMC4 260906Z 14012KT 23/20 A299 RMK A01 T02280197  RH  083%=      5-min Rain = 0
KMC4 260907Z 14016KT 23/20 A299 RMK A01 T02270197  RH  083%=      5-min Rain = 0
KMC4 260908Z 14017G22KT 23/20 A299 RMK A01 T02270196  RH  083%=      5-min Rain = 0
KMC4 260909Z 13013KT 23/20 A299 RMK A01 T02270196  RH  083%=      5-min Rain = 0
KMC4 260910Z 13015KT 23/20 A299 RMK A01 T02280197  RH  083%=      5-min Rain = 0
KMC4 260911Z 14013KT 23/20 A299 RMK A01 T02280197  RH  083%=      5-min Rain = 0
KMC4 260912Z 14014KT 23/20 A299 RMK A01 T02280197  RH  083%=      5-min Rain = 0
KMC4 260913Z 12013KT 23/20 A299 RMK A01 T02270197  RH  083%=      5-min Rain = 0
KMC4 260914Z 13015KT 23/20 A299 RMK A01 T02270197  RH  083%=      5-min Rain = 0
KMC4 260915Z 13011KT 23/20 A299 RMK A01 T02270196  RH  083%=      5-min Rain = 0
KMC4 260916Z 13011G16KT 23/20 A299 RMK A01 T02270197  RH  083%=      5-min Rain = 0
KMC4 260917Z 13013KT 23/20 A299 RMK A01 T02270197  RH  083%=      5-min Rain = 0
KMC4 260918Z 12010KT 23/20 A299 RMK A01 T02270197  RH  083%=      5-min Rain = 0
KMC4 260919Z 13011KT 23/20 A299 RMK A01 T02270197  RH  083%=      5-min Rain = 0
KMC4 260920Z 13011KT 23/20 A299 RMK A01 T02270197  RH  083%=      5-min Rain = 0
KMC4 260921Z 13014KT 23/20 A299 RMK A01 T02270196  RH  083%=      5-min Rain = 0
KMC4 260922Z 13014KT 23/20 A299 RMK A01 T02270196  RH  083%=      5-min Rain = 0
KMC4 260923Z 13014G19KT 23/20 A2991 RMK A01 T02280196  RH  083%=      5-min Rain = 0
KMC4 260924Z 14017G23KT 23/20 A2991 RMK A01 T02280196  RH  082%=      5-min Rain = 0
KMC4 260925Z 14012KT 23/20 A2991 RMK A01 T02280196  RH  082%=      5-min Rain = 0
KMC4 260926Z 14011KT 23/20 A2991 RMK A01 T02280196  RH  082%=      5-min Rain = 0
KMC4 260927Z 14017G23KT 23/20 A2991 RMK A01 T02280196  RH  082%=      5-min Rain = 0
KMC4 260928Z 14015KT 23/20 A2991 RMK A01 T02280196  RH  082%=      5-min Rain = 0
KMC4 260929Z 14014KT 23/20 A2991 RMK A01 T02280196  RH  082%=      5-min Rain = 0
KMC4 260930Z 13013KT 23/20 A299 RMK A01 T02280196  RH  082%=      5-min Rain = 0
KMC4 260931Z 14019KT 23/20 A299 RMK A01 T02280195  RH  082%=      5-min Rain = 0
KMC4 260932Z 14017KT 23/20 A299 RMK A01 T02290195  RH  081%=      5-min Rain = 0
KMC4 260933Z 14019G25KT 23/20 A299 RMK A01 T02280195  RH  081%=      5-min Rain = 0
KMC4 260934Z 14017G22KT 23/20 A299 RMK A01 T02290195  RH  081%=      5-min Rain = 0
KMC4 260935Z 13017KT 23/20 A299 RMK A01 T02290195  RH  081%=      5-min Rain = 0
KMC4 260936Z 13014G19KT 23/20 A299 RMK A01 T02290195  RH  081%=      5-min Rain = 0
KMC4 260937Z 14015G21KT 23/20 A299 RMK A01 T02290195  RH  081%=      5-min Rain = 0
KMC4 260938Z 15017KT 23/20 A299 RMK A01 T02290195  RH  081%=      5-min Rain = 0
KMC4 260939Z 14016KT 23/20 A299 RMK A01 T02280195  RH  081%=      5-min Rain = 0
KMC4 260940Z 13013KT 23/20 A299 RMK A01 T02290195  RH  081%=      5-min Rain = 0
KMC4 260941Z 14014G19KT 23/20 A2991 RMK A01 T02280195  RH  082%=      5-min Rain = 0
KMC4 260942Z 14015G20KT 23/20 A2991 RMK A01 T02280195  RH  082%=      5-min Rain = 0
KMC4 260943Z 13012KT 23/20 A2991 RMK A01 T02280196  RH  082%=      5-min Rain = 0
KMC4 260944Z 13010KT 23/20 A2991 RMK A01 T02280196  RH  082%=      5-min Rain = 0
KMC4 260945Z 13010G15KT 23/20 A2991 RMK A01 T02280196  RH  082%=      5-min Rain = 0
KMC4 260946Z 13009KT 23/20 A2991 RMK A01 T02280196  RH  082%=      5-min Rain = 0
KMC4 260947Z 13008KT 23/20 A2991 RMK A01 T02270197  RH  083%=      5-min Rain = 0
KMC4 260948Z 13012G17KT 23/20 A2991 RMK A01 T02270196  RH  083%=      5-min Rain = 0
KMC4 260949Z 14014KT 23/20 A2991 RMK A01 T02270196  RH  082%=      5-min Rain = 0
KMC4 260950Z 14011KT 23/20 A2991 RMK A01 T02280196  RH  082%=      5-min Rain = 0
KMC4 260951Z 14017KT 23/20 A2991 RMK A01 T02280196  RH  082%=      5-min Rain = 0
KMC4 260952Z 15013KT 23/20 A2991 RMK A01 T02280195  RH  082%=      5-min Rain = 0
KMC4 260953Z 13015KT 23/20 A2991 RMK A01 T02280195  RH  082%=      5-min Rain = 0
KMC4 260954Z 14016G21KT 23/20 A2991 RMK A01 T02280195  RH  082%=      5-min Rain = 0
KMC4 260955Z 14016KT 23/20 A2991 RMK A01 T02290195  RH  081%=      5-min Rain = 0
KMC4 260956Z 14011KT 23/20 A2991 RMK A01 T02290196  RH  081%=      5-min Rain = 0
KMC4 260957Z 14009KT 23/20 A2992 RMK A01 T02290196  RH  082%=      5-min Rain = 0
KMC4 260958Z 14007KT 23/20 A2992 RMK A01 T02280196  RH  082%=      5-min Rain = 0
KMC4 260959Z 15008KT 23/20 A2992 RMK A01 T02280196  RH  082%=      5-min Rain = 0
KMC4 261000Z 14006G12KT 23/20 A2992 RMK A01 T02280196  RH  082%=      5-min Rain = 0
KMC4 261001Z 14007KT 23/20 A2992 RMK A01 T02280195  RH  082%=      5-min Rain = 0
KMC4 261002Z 15007KT 23/20 A2992 RMK A01 T02280195  RH  082%=      5-min Rain = 0
KMC4 261003Z 15009KT 23/20 A2992 RMK A01 T02280195  RH  082%=      5-min Rain = 0
KMC4 261004Z 13012G17KT 23/20 A2992 RMK A01 T02280195  RH  081%=      5-min Rain = 0
KMC4 261005Z 15013KT 23/20 A2992 RMK A01 T02280195  RH  082%=      5-min Rain = 0
KMC4 261006Z 13008KT 23/20 A2992 RMK A01 T02280195  RH  081%=      5-min Rain = 0
KMC4 261007Z 16012KT 23/20 A2992 RMK A01 T02280195  RH  081%=      5-min Rain = 0
KMC4 261008Z 15012KT 23/19 A2992 RMK A01 T02290194  RH  081%=      5-min Rain = 0
KMC4 261009Z 14010KT 23/20 A2992 RMK A01 T02290195  RH  081%=      5-min Rain = 0
KMC4 261010Z 13008KT 23/20 A2992 RMK A01 T02290195  RH  081%=      5-min Rain = 0
KMC4 261011Z 13006KT 23/20 A2992 RMK A01 T02290195  RH  081%=      5-min Rain = 0
KMC4 261012Z 13007KT 23/20 A2992 RMK A01 T02290196  RH  082%=      5-min Rain = 0
KMC4 261013Z 12010KT 23/20 A2992 RMK A01 T02280195  RH  082%=      5-min Rain = 0
KMC4 261014Z 12008KT 23/20 A2992 RMK A01 T02280195  RH  082%=      5-min Rain = 0
KMC4 261015Z 10006KT 23/20 A2992 RMK A01 T02280196  RH  082%=      5-min Rain = 0
KMC4 261016Z 12006KT 23/20 A2992 RMK A01 T02280195  RH  082%=      5-min Rain = 0
KMC4 261017Z 14009KT 23/20 A2992 RMK A01 T02280195  RH  082%=      5-min Rain = 0
KMC4 261018Z 13007KT 23/20 A2992 RMK A01 T02280196  RH  082%=      5-min Rain = 0
KMC4 261019Z 13004G10KT 23/20 A2992 RMK A01 T02280196  RH  082%=      5-min Rain = 0
KMC4 261020Z 14008G13KT 23/20 A2992 RMK A01 T02280195  RH  082%=      5-min Rain = 0
KMC4 261021Z 14012KT 23/20 A2992 RMK A01 T02280195  RH  082%=      5-min Rain = 0
KMC4 261022Z 14009G14KT 23/20 A2992 RMK A01 T02280195  RH  082%=      5-min Rain = 0
KMC4 261023Z 12010KT 23/20 A2992 RMK A01 T02280196  RH  082%=      5-min Rain = 0
KMC4 261024Z 13013KT 23/20 A2992 RMK A01 T02280195  RH  082%=      5-min Rain = 0
KMC4 261025Z 13011KT 23/20 A2992 RMK A01 T02280195  RH  082%=      5-min Rain = 0
KMC4 261026Z 12008KT 23/20 A2993 RMK A01 T02280195  RH  082%=      5-min Rain = 0
KMC4 261027Z 14011KT 23/20 A2993 RMK A01 T02280195  RH  082%=      5-min Rain = 0
KMC4 261028Z 12009KT 23/20 A2993 RMK A01 T02280195  RH  081%=      5-min Rain = 0
KMC4 261029Z 14009KT 23/20 A2993 RMK A01 T02280195  RH  082%=      5-min Rain = 0
KMC4 261030Z 13010KT 23/20 A2993 RMK A01 T02280195  RH  081%=      5-min Rain = 0
KMC4 261031Z 14010KT 23/20 A2993 RMK A01 T02280195  RH  082%=      5-min Rain = 0
KMC4 261032Z 13012KT 23/20 A2993 RMK A01 T02280196  RH  082%=      5-min Rain = 0
KMC4 261033Z 13013KT 23/20 A2993 RMK A01 T02280196  RH  082%=      5-min Rain = 0
KMC4 261034Z 13010KT 23/20 A2993 RMK A01 T02280196  RH  082%=      5-min Rain = 0
KMC4 261035Z 14009KT 23/20 A2993 RMK A01 T02280196  RH  082%=      5-min Rain = 0
KMC4 261036Z 14010KT 23/20 A2993 RMK A01 T02280196  RH  082%=      5-min Rain = 0
KMC4 261037Z 14010KT 23/20 A2993 RMK A01 T02280196  RH  082%=      5-min Rain = 0
KMC4 261038Z 14010KT 23/20 A2993 RMK A01 T02280196  RH  082%=      5-min Rain = 0
KMC4 261039Z 12009KT 23/20 A2993 RMK A01 T02280197  RH  083%=      5-min Rain = 0
KMC4 261040Z 14008KT 23/20 A2993 RMK A01 T02270197  RH  083%=      5-min Rain = 0
KMC4 261041Z 14008KT 23/20 A2993 RMK A01 T02260197  RH  083%=      5-min Rain = 0
KMC4 261042Z 14009KT 23/20 A2993 RMK A01 T02260196  RH  083%=      5-min Rain = 0
KMC4 261043Z 13009KT 23/20 A2993 RMK A01 T02260197  RH  084%=      5-min Rain = 0
KMC4 261044Z 14010KT 23/20 A2993 RMK A01 T02260196  RH  083%=      5-min Rain = 0
KMC4 261045Z 12008KT 23/20 A2993 RMK A01 T02260196  RH  083%=      5-min Rain = 0
KMC4 261046Z 13006KT 23/20 A2993 RMK A01 T02270196  RH  083%=      5-min Rain = 0
KMC4 261047Z 13012KT 23/20 A2993 RMK A01 T02270196  RH  083%=      5-min Rain = 0
KMC4 261048Z 15008KT 23/20 A2993 RMK A01 T02270196  RH  082%=      5-min Rain = 0
KMC4 261049Z 15010KT 23/20 A2993 RMK A01 T02270197  RH  083%=      5-min Rain = 0
KMC4 261050Z 13011KT 23/20 A2993 RMK A01 T02270196  RH  082%=      5-min Rain = 0
KMC4 261051Z 14008KT 23/20 A2993 RMK A01 T02270196  RH  083%=      5-min Rain = 0
KMC4 261052Z 13009KT 23/20 A2993 RMK A01 T02270197  RH  083%=      5-min Rain = 0
KMC4 261053Z 14011KT 23/20 A2993 RMK A01 T02270197  RH  083%=      5-min Rain = 0
KMC4 261054Z 15008KT 23/20 A2993 RMK A01 T02270196  RH  083%=      5-min Rain = 0
KMC4 261055Z 15009KT 23/20 A2993 RMK A01 T02270197  RH  083%=      5-min Rain = 0
KMC4 261056Z 15009KT 23/20 A2993 RMK A01 T02270197  RH  083%=      5-min Rain = 0
KMC4 261057Z 16013KT 23/20 A2993 RMK A01 T02260197  RH  084%=      5-min Rain = 0
KMC4 261058Z 15015KT 23/20 A2993 RMK A01 T02260196  RH  083%=      5-min Rain = 0
KMC4 261059Z 15014KT 23/20 A2993 RMK A01 T02270196  RH  083%=      5-min Rain = 0
KMC4 261100Z 15016KT 23/20 A2993 RMK A01 T02270196  RH  083%=      5-min Rain = 0
KMC4 261101Z 15015KT 23/20 A2994 RMK A01 T02280197  RH  082%=      5-min Rain = 0
KMC4 261102Z 16013KT 23/20 A2994 RMK A01 T02280196  RH  082%=      5-min Rain = 0
KMC4 261103Z 16014KT 23/20 A2994 RMK A01 T02280196  RH  082%=      5-min Rain = 0
KMC4 261104Z 17015KT 23/20 A2994 RMK A01 T02280196  RH  083%=      5-min Rain = 0
KMC4 261105Z 17015KT 23/20 A2994 RMK A01 T02280197  RH  083%=      5-min Rain = 0
KMC4 261106Z 16018KT 23/20 A2994 RMK A01 T02280196  RH  083%=      5-min Rain = 0
KMC4 261107Z 16016KT 23/20 A2995 RMK A01 T02280196  RH  082%=      5-min Rain = 0
KMC4 261108Z 17012KT 23/20 A2995 RMK A01 T02280197  RH  083%=      5-min Rain = 0
KMC4 261109Z 17013KT 23/20 A2995 RMK A01 T02270197  RH  083%=      5-min Rain = 0
KMC4 261110Z 16014KT 23/20 A2995 RMK A01 T02270197  RH  083%=      5-min Rain = 0
KMC4 261111Z 16014KT 23/20 A2995 RMK A01 T02270197  RH  083%=      5-min Rain = 0
KMC4 261112Z 16014KT 23/20 A2995 RMK A01 T02260197  RH  083%=      5-min Rain = 0
KMC4 261113Z 17015G20KT 23/20 A2994 RMK A01 T02260197  RH  083%=      5-min Rain = 0
KMC4 261114Z 16016KT 23/20 A2994 RMK A01 T02260197  RH  083%=      5-min Rain = 0
KMC4 261115Z 16019KT 23/20 A2994 RMK A01 T02270197  RH  083%=      5-min Rain = 0
KMC4 261116Z 16016KT 23/20 A2994 RMK A01 T02270196  RH  083%=      5-min Rain = 0
KMC4 261117Z 16017KT 23/20 A2994 RMK A01 T02270196  RH  083%=      5-min Rain = 0
KMC4 261118Z 16019KT 23/20 A2993 RMK A01 T02270197  RH  083%=      5-min Rain = 0
KMC4 261119Z 15017KT 23/20 A2993 RMK A01 T02270197  RH  083%=      5-min Rain = 0
KMC4 261120Z 15019KT 23/20 A2993 RMK A01 T02270197  RH  083%=      5-min Rain = 0
KMC4 261121Z 16017KT 23/20 A2993 RMK A01 T02260196  RH  083%=      5-min Rain = 0
KMC4 261122Z 16016KT 23/20 A2993 RMK A01 T02270197  RH  083%=      5-min Rain = 0
KMC4 261123Z 16017KT 23/20 A2993 RMK A01 T02260197  RH  083%=      5-min Rain = 0
KMC4 261124Z 16016KT 23/20 A2993 RMK A01 T02270197  RH  083%=      5-min Rain = 0
KMC4 261125Z 15021KT 23/20 A2994 RMK A01 T02260197  RH  083%=      5-min Rain = 0
KMC4 261126Z 16016KT 23/20 A2994 RMK A01 T02270197  RH  083%=      5-min Rain = 0
KMC4 261127Z 16013KT 23/20 A2994 RMK A01 T02260196  RH  083%=      5-min Rain = 0
KMC4 261128Z 16013KT 23/20 A2995 RMK A01 T02260196  RH  083%=      5-min Rain = 0
KMC4 261129Z 16012KT 23/20 A2995 RMK A01 T02260197  RH  083%=      5-min Rain = 0
KMC4 261130Z 16010G15KT 23/20 A2995 RMK A01 T02260197  RH  083%=      5-min Rain = 0
KMC4 261131Z 16011KT 23/20 A2995 RMK A01 T02260197  RH  083%=      5-min Rain = 0
KMC4 261132Z 16013KT 23/20 A2995 RMK A01 T02260196  RH  083%=      5-min Rain = 0
KMC4 261133Z 17009KT 23/20 A2995 RMK A01 T02260196  RH  083%=      5-min Rain = 0
KMC4 261134Z 17010KT 23/20 A2995 RMK A01 T02260196  RH  083%=      5-min Rain = 0
KMC4 261135Z 17009KT 23/20 A2995 RMK A01 T02260197  RH  083%=      5-min Rain = 0
KMC4 261136Z 16011KT 23/20 A2995 RMK A01 T02260196  RH  083%=      5-min Rain = 0
KMC4 261137Z 16010G16KT 23/20 A2995 RMK A01 T02260196  RH  083%=      5-min Rain = 0
KMC4 261138Z 16012KT 23/20 A2995 RMK A01 T02260196  RH  083%=      5-min Rain = 0
KMC4 261139Z 16013KT 23/20 A2995 RMK A01 T02270196  RH  083%=      5-min Rain = 0
KMC4 261140Z 16012G18KT 23/20 A2995 RMK A01 T02270196  RH  083%=      5-min Rain = 0
KMC4 261141Z 16014KT 23/20 A2995 RMK A01 T02270196  RH  083%=      5-min Rain = 0
KMC4 261142Z 16014KT 23/20 A2995 RMK A01 T02270195  RH  083%=      5-min Rain = 0
KMC4 261143Z 16015KT 23/20 A2995 RMK A01 T02270196  RH  082%=      5-min Rain = 0
KMC4 261144Z 16012KT 23/20 A2995 RMK A01 T02270196  RH  083%=      5-min Rain = 0
KMC4 261145Z 16011KT 23/20 A2995 RMK A01 T02270197  RH  083%=      5-min Rain = 0
KMC4 261146Z 16010KT 23/20 A2995 RMK A01 T02270197  RH  083%=      5-min Rain = 0
KMC4 261147Z 16011KT 23/20 A2995 RMK A01 T02270197  RH  083%=      5-min Rain = 0
KMC4 261148Z 16012KT 23/20 A2995 RMK A01 T02260196  RH  083%=      5-min Rain = 0
KMC4 261149Z 16011KT 23/20 A2995 RMK A01 T02260196  RH  083%=      5-min Rain = 0
KMC4 261150Z 15013KT 23/20 A2995 RMK A01 T02260197  RH  083%=      5-min Rain = 0
KMC4 261151Z 16013KT 23/20 A2995 RMK A01 T02270197  RH  083%=      5-min Rain = 0
KMC4 261152Z 16010KT 23/20 A2995 RMK A01 T02260197  RH  084%=      5-min Rain = 0
KMC4 261153Z 15016KT 23/20 A2995 RMK A01 T02260197  RH  083%=      5-min Rain = 0
KMC4 261154Z 15014KT 23/20 A2995 RMK A01 T02260197  RH  083%=      5-min Rain = 0
KMC4 261155Z 15014KT 23/20 A2995 RMK A01 T02260196  RH  083%=      5-min Rain = 0
KMC4 261156Z 15016KT 23/20 A2995 RMK A01 T02260196  RH  083%=      5-min Rain = 0
KMC4 261157Z 15017KT 23/20 A2995 RMK A01 T02260196  RH  083%=      5-min Rain = 0
KMC4 261158Z 15015KT 23/20 A2995 RMK A01 T02260196  RH  083%=      5-min Rain = 0
KMC4 261159Z 16015KT 23/20 A2995 RMK A01 T02270196  RH  083%=      5-min Rain = 0
KMC4 261200Z 15019KT 23/20 A2994 RMK A01 T02260196  RH  083%=      5-min Rain = 0
KMC4 261201Z 16014G19KT 23/20 A2995 RMK A01 T02270196  RH  083%=      5-min Rain = 0
KMC4 261202Z 16014KT 23/20 A2994 RMK A01 T02260196  RH  083%=      5-min Rain = 0
KMC4 261203Z 15015KT 23/20 A2994 RMK A01 T02260197  RH  083%=      5-min Rain = 0
KMC4 261204Z 15015KT 23/20 A2994 RMK A01 T02260196  RH  083%=      5-min Rain = 0
KMC4 261205Z 16015KT 23/20 A2994 RMK A01 T02260196  RH  084%=      5-min Rain = 0
KMC4 261206Z 15014KT 23/20 A2995 RMK A01 T02250197  RH  084%=      5-min Rain = 0
KMC4 261207Z 14016G21KT 23/20 A2995 RMK A01 T02250197  RH  084%=      5-min Rain = 0
KMC4 261208Z 15019KT 23/20 A2995 RMK A01 T02250196  RH  084%=      5-min Rain = 0
KMC4 261209Z 15015KT 23/20 A2995 RMK A01 T02260196  RH  083%=      5-min Rain = 0
KMC4 261210Z 15017KT 23/20 A2995 RMK A01 T02250196  RH  083%=      5-min Rain = 0
KMC4 261211Z 16015KT 23/20 A2995 RMK A01 T02260196  RH  083%=      5-min Rain = 0
KMC4 261212Z 16014KT 23/20 A2995 RMK A01 T02250196  RH  083%=      5-min Rain = 0
KMC4 261213Z 16015KT 23/20 A2995 RMK A01 T02260196  RH  084%=      5-min Rain = 0
KMC4 261214Z 16014KT 23/20 A2995 RMK A01 T02260196  RH  084%=      5-min Rain = 0
KMC4 261215Z 15014G19KT 23/20 A2995 RMK A01 T02250197  RH  084%=      5-min Rain = 0
KMC4 261216Z 15019KT 23/20 A2995 RMK A01 T02250196  RH  084%=      5-min Rain = 0
KMC4 261217Z 15017KT 23/20 A2995 RMK A01 T02250196  RH  084%=      5-min Rain = 0
KMC4 261218Z 15015KT 23/20 A2995 RMK A01 T02260196  RH  083%=      5-min Rain = 0
KMC4 261219Z 16016KT 23/20 A2995 RMK A01 T02250196  RH  083%=      5-min Rain = 0
KMC4 261220Z 15016KT 23/20 A2995 RMK A01 T02250196  RH  083%=      5-min Rain = 0
KMC4 261221Z 16015KT 23/20 A2995 RMK A01 T02250196  RH  083%=      5-min Rain = 0
KMC4 261222Z 15016KT 23/20 A2995 RMK A01 T02260196  RH  084%=      5-min Rain = 0
KMC4 261223Z 15017KT 23/20 A2995 RMK A01 T02250196  RH  084%=      5-min Rain = 0
KMC4 261224Z 16015KT 23/20 A2995 RMK A01 T02250196  RH  083%=      5-min Rain = 0
KMC4 261225Z 15016KT 23/20 A2995 RMK A01 T02260197  RH  084%=      5-min Rain = 0
KMC4 261226Z 15017KT 23/20 A2995 RMK A01 T02260197  RH  084%=      5-min Rain = 0
KMC4 261227Z 15018KT 23/20 A2995 RMK A01 T02260196  RH  084%=      5-min Rain = 0
KMC4 261228Z 16016KT 23/20 A2995 RMK A01 T02250196  RH  084%=      5-min Rain = 0
KMC4 261229Z 15016KT 23/20 A2995 RMK A01 T02250196  RH  084%=      5-min Rain = 0
KMC4 261230Z 15015KT 23/20 A2995 RMK A01 T02250196  RH  084%=      5-min Rain = 0
KMC4 261231Z 15016KT 23/20 A2995 RMK A01 T02250197  RH  084%=      5-min Rain = 0
KMC4 261232Z 16015KT 23/20 A2995 RMK A01 T02250197  RH  084%=      5-min Rain = 0
KMC4 261233Z 16017KT 23/20 A2995 RMK A01 T02250197  RH  084%=      5-min Rain = 0
KMC4 261234Z 15016KT 23/20 A2995 RMK A01 T02250196  RH  084%=      5-min Rain = 0
KMC4 261235Z 15017KT 23/20 A2995 RMK A01 T02250196  RH  084%=      5-min Rain = 0
KMC4 261236Z 16016G21KT 23/20 A2995 RMK A01 T02250196  RH  084%=      5-min Rain = 0
KMC4 261237Z 15016KT 23/20 A2995 RMK A01 T02250196  RH  084%=      5-min Rain = 0
KMC4 261238Z 15016KT 23/20 A2995 RMK A01 T02250196  RH  084%=      5-min Rain = 0
KMC4 261239Z 16014G20KT 23/20 A2995 RMK A01 T02250197  RH  084%=      5-min Rain = 0
KMC4 261240Z 15017KT 23/20 A2995 RMK A01 T02250197  RH  084%=      5-min Rain = 0
KMC4 261241Z 16015G21KT 23/20 A2995 RMK A01 T02250197  RH  084%=      5-min Rain = 0
KMC4 261242Z 15016KT 23/20 A2995 RMK A01 T02250196  RH  084%=      5-min Rain = 0
KMC4 261243Z 15017KT 23/20 A2995 RMK A01 T02250196  RH  084%=      5-min Rain = 0
KMC4 261244Z 16017KT 23/20 A2995 RMK A01 T02250196  RH  084%=      5-min Rain = 0
KMC4 261245Z 15016G21KT 23/20 A2995 RMK A01 T02250196  RH  084%=      5-min Rain = 0
KMC4 261246Z 15012KT 23/20 A2996 RMK A01 T02250196  RH  084%=      5-min Rain = 0
KMC4 261247Z 15016G22KT 23/20 A2996 RMK A01 T02250196  RH  084%=      5-min Rain = 0
KMC4 261248Z 14015KT 23/20 A2996 RMK A01 T02250196  RH  084%=      5-min Rain = 0
KMC4 261249Z 15013KT 23/20 A2996 RMK A01 T02250197  RH  084%=      5-min Rain = 0
KMC4 261250Z 15014KT 23/20 A2996 RMK A01 T02250197  RH  084%=      5-min Rain = 0
KMC4 261251Z 14013KT 22/20 A2996 RMK A01 T02240196  RH  084%=      5-min Rain = 0
KMC4 261252Z 15013G19KT 22/20 A2996 RMK A01 T02240197  RH  084%=      5-min Rain = 0
KMC4 261253Z 14016KT 23/20 A2996 RMK A01 T02250197  RH  084%=      5-min Rain = 0
KMC4 261254Z 14014KT 23/20 A2996 RMK A01 T02250196  RH  084%=      5-min Rain = 0
KMC4 261255Z 14014KT 22/20 A2996 RMK A01 T02240196  RH  084%=      5-min Rain = 0
KMC4 261256Z 15014KT 23/20 A2996 RMK A01 T02250197  RH  084%=      5-min Rain = 0
KMC4 261257Z 15013KT 23/20 A2996 RMK A01 T02250197  RH  084%=      5-min Rain = 0
KMC4 261258Z 15014KT 23/20 A2996 RMK A01 T02250197  RH  084%=      5-min Rain = 0
KMC4 261259Z 14013KT 23/20 A2996 RMK A01 T02250197  RH  084%=      5-min Rain = 0
KMC4 261300Z 14014KT 22/20 A2996 RMK A01 T02240196  RH  084%=      5-min Rain = 0
KMC4 261301Z 14013KT 23/20 A2996 RMK A01 T02250197  RH  084%=      5-min Rain = 0
KMC4 261302Z 15016KT 23/20 A2996 RMK A01 T02250196  RH  084%=      5-min Rain = 0
KMC4 261303Z 14017KT 23/20 A2996 RMK A01 T02250196  RH  084%=      5-min Rain = 0
KMC4 261304Z 14014KT 23/20 A2996 RMK A01 T02250196  RH  084%=      5-min Rain = 0
KMC4 261305Z 14011KT 23/20 A2996 RMK A01 T02250197  RH  084%=      5-min Rain = 0
KMC4 261306Z 14012KT 23/20 A2996 RMK A01 T02250197  RH  084%=      5-min Rain = 0
KMC4 261307Z 14013KT 23/20 A2996 RMK A01 T02250197  RH  084%=      5-min Rain = 0
KMC4 261308Z 14014KT 23/20 A2996 RMK A01 T02250197  RH  084%=      5-min Rain = 0
KMC4 261309Z 14013KT 23/20 A2996 RMK A01 T02250196  RH  084%=      5-min Rain = 0
KMC4 261310Z 14014G19KT 23/20 A2996 RMK A01 T02250197  RH  084%=      5-min Rain = 0
KMC4 261311Z 14014KT 23/20 A2996 RMK A01 T02250197  RH  084%=      5-min Rain = 0
KMC4 261312Z 14014KT 23/20 A2996 RMK A01 T02250196  RH  084%=      5-min Rain = 0
KMC4 261313Z 14013KT 23/20 A2996 RMK A01 T02250196  RH  084%=      5-min Rain = 0
KMC4 261314Z 14015KT 23/20 A2996 RMK A01 T02250197  RH  084%=      5-min Rain = 0
KMC4 261315Z 14014KT 23/20 A2996 RMK A01 T02250197  RH  084%=      5-min Rain = 0
KMC4 261316Z 14016KT 23/20 A2996 RMK A01 T02250196  RH  084%=      5-min Rain = 0
KMC4 261317Z 14015KT 23/20 A2996 RMK A01 T02250196  RH  084%=      5-min Rain = 0
KMC4 261318Z 14013KT 23/20 A2996 RMK A01 T02250196  RH  084%=      5-min Rain = 0
KMC4 261319Z 14017KT 23/20 A2996 RMK A01 T02250196  RH  084%=      5-min Rain = 0
KMC4 261320Z 14015KT 23/20 A2996 RMK A01 T02250196  RH  084%=      5-min Rain = 0
KMC4 261321Z 14016KT 23/20 A2996 RMK A01 T02250196  RH  083%=      5-min Rain = 0
KMC4 261322Z 15016KT 23/20 A2996 RMK A01 T02260196  RH  083%=      5-min Rain = 0
KMC4 261323Z 15014G19KT 23/20 A2996 RMK A01 T02260196  RH  083%=      5-min Rain = 0
KMC4 261324Z 15015G21KT 23/20 A2996 RMK A01 T02260196  RH  083%=      5-min Rain = 0
KMC4 261325Z 14016KT 23/20 A2996 RMK A01 T02260196  RH  083%=      5-min Rain = 0
KMC4 261326Z 15017KT 23/20 A2996 RMK A01 T02260196  RH  083%=      5-min Rain = 0
KMC4 261327Z 15014G22KT 23/20 A2996 RMK A01 T02260196  RH  083%=      5-min Rain = 0
KMC4 261328Z 15018G23KT 23/20 A2996 RMK A01 T02260196  RH  083%=      5-min Rain = 0
KMC4 261329Z 15015KT 23/20 A2996 RMK A01 T02260195  RH  083%=      5-min Rain = 0
KMC4 261330Z 15015KT 23/20 A2996 RMK A01 T02270196  RH  083%=      5-min Rain = 0
KMC4 261331Z 15016KT 23/20 A2996 RMK A01 T02270196  RH  083%=      5-min Rain = 0
KMC4 261332Z 15016KT 23/20 A2996 RMK A01 T02270196  RH  083%=      5-min Rain = 0
KMC4 261333Z 15018KT 23/20 A2996 RMK A01 T02270195  RH  082%=      5-min Rain = 0
KMC4 261334Z 15014KT 23/20 A2996 RMK A01 T02270195  RH  082%=      5-min Rain = 0
KMC4 261335Z 15019G25KT 23/20 A2996 RMK A01 T02270196  RH  082%=      5-min Rain = 0
KMC4 261336Z 15018KT 23/20 A2996 RMK A01 T02280195  RH  082%=      5-min Rain = 0
KMC4 261337Z 15019G24KT 23/20 A2996 RMK A01 T02280195  RH  082%=      5-min Rain = 0
KMC4 261338Z 15018KT 23/20 A2996 RMK A01 T02280195  RH  082%=      5-min Rain = 0
KMC4 261339Z 15016KT 23/20 A2996 RMK A01 T02290196  RH  082%=      5-min Rain = 0
KMC4 261340Z 15017KT 23/20 A2996 RMK A01 T02290196  RH  082%=      5-min Rain = 0
KMC4 261341Z 15014G19KT 23/20 A2996 RMK A01 T02290196  RH  082%=      5-min Rain = 0
KMC4 261342Z 15015KT 23/20 A2996 RMK A01 T02290196  RH  082%=      5-min Rain = 0
KMC4 261343Z 15015KT 23/20 A2996 RMK A01 T02290197  RH  082%=      5-min Rain = 0
KMC4 261344Z 16017G24KT 23/20 A2996 RMK A01 T02290196  RH  082%=      5-min Rain = 0
KMC4 261345Z 16018KT 23/20 A2996 RMK A01 T02290195  RH  081%=      5-min Rain = 0
KMC4 261346Z 15017G22KT 23/20 A2996 RMK A01 T02290196  RH  082%=      5-min Rain = 0
KMC4 261347Z 15017G23KT 23/20 A2996 RMK A01 T02290195  RH  081%=      5-min Rain = 0
KMC4 261348Z 15013G20KT 23/20 A2996 RMK A01 T02290196  RH  082%=      5-min Rain = 0
KMC4 261349Z 15019KT 23/20 A2996 RMK A01 T02290196  RH  082%=      5-min Rain = 0
KMC4 261350Z 15016KT 23/20 A2997 RMK A01 T02300196  RH  081%=      5-min Rain = 0
KMC4 261351Z 15014G22KT 23/20 A2997 RMK A01 T02310197  RH  082%=      5-min Rain = 0
KMC4 261352Z 15016G24KT 23/20 A2997 RMK A01 T02310197  RH  081%=      5-min Rain = 0
KMC4 261353Z 15018G23KT 23/20 A2997 RMK A01 T02320198  RH  081%=      5-min Rain = 0
KMC4 261354Z 15018KT 23/20 A2997 RMK A01 T02310196  RH  081%=      5-min Rain = 0
KMC4 261355Z 16015G20KT 23/20 A2997 RMK A01 T02300196  RH  081%=      5-min Rain = 0
KMC4 261356Z 15019KT 23/20 A2997 RMK A01 T02300196  RH  081%=      5-min Rain = 0
KMC4 261357Z 16019KT 23/20 A2997 RMK A01 T02290195  RH  081%=      5-min Rain = 0
KMC4 261358Z 14018KT 23/20 A2998 RMK A01 T02290196  RH  082%=      5-min Rain = 0
KMC4 261359Z 16015KT 23/20 A2998 RMK A01 T02290196  RH  082%=      5-min Rain = 0
KMC4 261400Z 15013G18KT 23/20 A2998 RMK A01 T02290196  RH  082%=      5-min Rain = 0
KMC4 261401Z 15016G21KT 23/20 A2998 RMK A01 T02290197  RH  082%=      5-min Rain = 0
KMC4 261402Z 15014G19KT 23/20 A2998 RMK A01 T02290197  RH  082%=      5-min Rain = 0
KMC4 261403Z 14016G21KT 23/20 A2998 RMK A01 T02300196  RH  081%=      5-min Rain = 0
KMC4 261404Z 16015KT 23/20 A2998 RMK A01 T02300197  RH  081%=      5-min Rain = 0
KMC4 261405Z 15016KT 23/20 A2998 RMK A01 T02300196  RH  081%=      5-min Rain = 0
KMC4 261406Z 15012KT 23/20 A2998 RMK A01 T02300198  RH  082%=      5-min Rain = 0
KMC4 261407Z 16013KT 23/20 A2998 RMK A01 T02300198  RH  082%=      5-min Rain = 0
KMC4 261408Z 15015G20KT 23/20 A2998 RMK A01 T02310197  RH  081%=      5-min Rain = 0
KMC4 261409Z 14014KT 23/20 A2998 RMK A01 T02310197  RH  081%=      5-min Rain = 0
KMC4 261410Z 15016KT 23/20 A2998 RMK A01 T02300196  RH  081%=      5-min Rain = 0
KMC4 261411Z 15014KT 23/20 A2998 RMK A01 T02300196  RH  081%=      5-min Rain = 0
KMC4 261412Z 15011KT 23/20 A2999 RMK A01 T02290197  RH  082%=      5-min Rain = 0
KMC4 261413Z 16010KT 23/20 A2998 RMK A01 T02300198  RH  082%=      5-min Rain = 0
KMC4 261414Z 16011KT 23/20 A2998 RMK A01 T02300197  RH  082%=      5-min Rain = 0
KMC4 261415Z 15011KT 23/20 A2998 RMK A01 T02300197  RH  082%=      5-min Rain = 0
KMC4 261416Z 15016KT 23/20 A2998 RMK A01 T02300197  RH  082%=      5-min Rain = 0
KMC4 261417Z 16015KT 23/20 A2998 RMK A01 T02300197  RH  082%=      5-min Rain = 0
KMC4 261418Z 15012KT 23/20 A2998 RMK A01 T02290197  RH  082%=      5-min Rain = 0
KMC4 261419Z 15012G17KT 23/20 A2998 RMK A01 T02290198  RH  083%=      5-min Rain = 0
KMC4 261420Z 15013KT 23/20 A2998 RMK A01 T02300197  RH  082%=      5-min Rain = 0
KMC4 261421Z 16011KT 23/20 A2999 RMK A01 T02300198  RH  082%=      5-min Rain = 0
KMC4 261422Z 15011KT 23/20 A2999 RMK A01 T02290198  RH  082%=      5-min Rain = 0
KMC4 261423Z 16014KT 23/20 A2999 RMK A01 T02300197  RH  082%=      5-min Rain = 0
KMC4 261424Z 16016KT 23/20 A2999 RMK A01 T02290196  RH  081%=      5-min Rain = 0
KMC4 261425Z 16014KT 23/20 A2999 RMK A01 T02290197  RH  082%=      5-min Rain = 0
KMC4 261426Z 16014KT 23/20 A2999 RMK A01 T02280197  RH  082%=      5-min Rain = 0
KMC4 261427Z 15015G20KT 23/20 A2999 RMK A01 T02280197  RH  083%=      5-min Rain = 0
KMC4 261428Z 16017G22KT 23/20 A2999 RMK A01 T02280197  RH  083%=      5-min Rain = 0
KMC4 261429Z 15018KT 23/20 A2999 RMK A01 T02280196  RH  082%=      5-min Rain = 0
KMC4 261430Z 15018KT 23/20 A2999 RMK A01 T02280196  RH  082%=      5-min Rain = 0
KMC4 261431Z 15017KT 23/20 A2999 RMK A01 T02280197  RH  082%=      5-min Rain = 0
KMC4 261432Z 16017KT 23/20 A2999 RMK A01 T02280196  RH  082%=      5-min Rain = 0
KMC4 261433Z 15016KT 23/20 A2999 RMK A01 T02280196  RH  082%=      5-min Rain = 0
KMC4 261434Z 15015KT 23/20 A2999 RMK A01 T02280197  RH  083%=      5-min Rain = 0
KMC4 261435Z 15017KT 23/20 A2999 RMK A01 T02280197  RH  082%=      5-min Rain = 0
KMC4 261436Z 15018KT 23/20 A2999 RMK A01 T02280196  RH  082%=      5-min Rain = 0
KMC4 261437Z 15017KT 23/20 A2999 RMK A01 T02290197  RH  082%=      5-min Rain = 0
KMC4 261438Z 16016KT 23/20 A2999 RMK A01 T02290197  RH  082%=      5-min Rain = 0
KMC4 261439Z 16018KT 23/20 A2999 RMK A01 T02290197  RH  082%=      5-min Rain = 0
KMC4 261440Z 16017KT 23/20 A2999 RMK A01 T02290197  RH  082%=      5-min Rain = 0
KMC4 261441Z 16017KT 23/20 A2999 RMK A01 T02290197  RH  082%=      5-min Rain = 0
KMC4 261442Z 16018KT 23/20 A2999 RMK A01 T02290197  RH  082%=      5-min Rain = 0
KMC4 261443Z 16017KT 23/20 A2999 RMK A01 T02290197  RH  082%=      5-min Rain = 0
KMC4 261444Z 15017KT 23/20 A2998 RMK A01 T02290196  RH  082%=      5-min Rain = 0
KMC4 261445Z 15016KT 23/20 A2998 RMK A01 T02290197  RH  082%=      5-min Rain = 0
KMC4 261446Z 15019KT 23/20 A2998 RMK A01 T02290198  RH  082%=      5-min Rain = 0
KMC4 261447Z 15019KT 23/20 A2998 RMK A01 T02300197  RH  082%=      5-min Rain = 0
KMC4 261448Z 15021KT 23/20 A2998 RMK A01 T02300197  RH  081%=      5-min Rain = 0
KMC4 261449Z 16018G23KT 23/20 A2998 RMK A01 T02300196  RH  081%=      5-min Rain = 0
KMC4 261450Z 15019KT 23/20 A2998 RMK A01 T02300198  RH  082%=      5-min Rain = 0
KMC4 261451Z 15020KT 23/20 A2998 RMK A01 T02300197  RH  082%=      5-min Rain = 0
KMC4 261452Z 15018KT 23/20 A2998 RMK A01 T02310197  RH  081%=      5-min Rain = 0
KMC4 261453Z 15019KT 23/20 A2998 RMK A01 T02310197  RH  081%=      5-min Rain = 0
KMC4 261454Z 15018KT 23/20 A2998 RMK A01 T02310197  RH  081%=      5-min Rain = 0
KMC4 261455Z 15019KT 23/20 A2998 RMK A01 T02310198  RH  082%=      5-min Rain = 0
KMC4 261456Z 15019KT 23/20 A2998 RMK A01 T02310197  RH  081%=      5-min Rain = 0
KMC4 261457Z 15017KT 23/20 A2998 RMK A01 T02310197  RH  081%=      5-min Rain = 0
KMC4 261458Z 16016KT 23/20 A2998 RMK A01 T02310197  RH  081%=      5-min Rain = 0
KMC4 261459Z 15016KT 23/20 A2999 RMK A01 T02310197  RH  081%=      5-min Rain = 0
KMC4 261500Z 15017KT 23/20 A2998 RMK A01 T02320198  RH  081%=      5-min Rain = 0
KMC4 261501Z 15017KT 23/20 A2999 RMK A01 T02320199  RH  081%=      5-min Rain = 0
KMC4 261502Z 15017G23KT 23/20 A2999 RMK A01 T02320199  RH  081%=      5-min Rain = 0
KMC4 261503Z 15015KT 23/20 A2999 RMK A01 T02330199  RH  081%=      5-min Rain = 0
KMC4 261504Z 15016KT 23/20 A2999 RMK A01 T02330199  RH  081%=      5-min Rain = 0
KMC4 261505Z 15020KT 23/20 A2999 RMK A01 T02330199  RH  081%=      5-min Rain = 0
KMC4 261506Z 15019G24KT 23/20 A2999 RMK A01 T02330198  RH  081%=      5-min Rain = 0
KMC4 261507Z 14019KT 23/20 A2999 RMK A01 T02330199  RH  081%=      5-min Rain = 0
KMC4 261508Z 15017G23KT 23/20 A2999 RMK A01 T02330199  RH  081%=      5-min Rain = 0
KMC4 261509Z 14014KT 23/20 A2999 RMK A01 T02330200  RH  082%=      5-min Rain = 0
KMC4 261510Z 14016KT 23/20 A2999 RMK A01 T02330199  RH  081%=      5-min Rain = 0
KMC4 261511Z 14017KT 23/20 A2999 RMK A01 T02330199  RH  081%=      5-min Rain = 0
KMC4 261512Z 15014KT 23/20 A2999 RMK A01 T02330199  RH  081%=      5-min Rain = 0
KMC4 261513Z 15015KT 23/20 A2999 RMK A01 T02340200  RH  081%=      5-min Rain = 0
KMC4 261514Z 14016KT 23/20 A2999 RMK A01 T02340199  RH  081%=      5-min Rain = 0
KMC4 261515Z 15015KT 24/20 A2998 RMK A01 T02350200  RH  081%=      5-min Rain = 0
KMC4 261516Z 15017KT 24/20 A2998 RMK A01 T02350200  RH  081%=      5-min Rain = 0
KMC4 261517Z 15013G18KT 24/20 A2998 RMK A01 T02350200  RH  080%=      5-min Rain = 0
KMC4 261518Z 14014G19KT 24/20 A2999 RMK A01 T02350200  RH  081%=      5-min Rain = 0
KMC4 261519Z 15015KT 24/20 A2998 RMK A01 T02360200  RH  080%=      5-min Rain = 0
KMC4 261520Z 15016G21KT 24/20 A2999 RMK A01 T02360200  RH  080%=      5-min Rain = 0
KMC4 261521Z 15016G21KT 24/20 A2999 RMK A01 T02350199  RH  080%=      5-min Rain = 0
KMC4 261522Z 14017KT 24/20 A2999 RMK A01 T02350200  RH  081%=      5-min Rain = 0
KMC4 261523Z 14016KT 24/20 A2999 RMK A01 T02350199  RH  080%=      5-min Rain = 0
KMC4 261524Z 14016KT 24/20 A2999 RMK A01 T02350199  RH  080%=      5-min Rain = 0
KMC4 261525Z 13016KT 24/20 A2999 RMK A01 T02360200  RH  080%=      5-min Rain = 0
KMC4 261526Z 14016KT 24/20 A2999 RMK A01 T02360200  RH  080%=      5-min Rain = 0
KMC4 261527Z 15016KT 24/20 A2999 RMK A01 T02360200  RH  080%=      5-min Rain = 0
KMC4 261528Z 15015KT 24/20 A2999 RMK A01 T02360200  RH  080%=      5-min Rain = 0
KMC4 261529Z 16013KT 24/20 A2999 RMK A01 T02350200  RH  080%=      5-min Rain = 0
KMC4 261530Z 15016KT 24/20 A2999 RMK A01 T02360200  RH  080%=      5-min Rain = 0
KMC4 261531Z 14017KT 24/20 A2999 RMK A01 T02360200  RH  080%=      5-min Rain = 0
KMC4 261532Z 15015KT 24/20 A2999 RMK A01 T02360201  RH  081%=      5-min Rain = 0
KMC4 261533Z 15013G18KT 24/20 A2999 RMK A01 T02370201  RH  081%=      5-min Rain = 0
KMC4 261534Z 15016KT 24/20 A2999 RMK A01 T02360199  RH  080%=      5-min Rain = 0
KMC4 261535Z 14015KT 24/20 A2999 RMK A01 T02370201  RH  081%=      5-min Rain = 0
KMC4 261536Z 14018KT 24/20 A2999 RMK A01 T02370199  RH  079%=      5-min Rain = 0
KMC4 261537Z 14019KT 24/20 A2999 RMK A01 T02370200  RH  079%=      5-min Rain = 0
KMC4 261538Z 14015KT 24/20 A2999 RMK A01 T02370201  RH  080%=      5-min Rain = 0
KMC4 261539Z 14017KT 24/20 A2999 RMK A01 T02370200  RH  080%=      5-min Rain = 0
KMC4 261540Z 15014KT 24/20 A2999 RMK A01 T02370201  RH  080%=      5-min Rain = 0
KMC4 261541Z 15014G21KT 24/20 A2999 RMK A01 T02380202  RH  080%=      5-min Rain = 0
KMC4 261542Z 16015G20KT 24/20 A2999 RMK A01 T02390202  RH  079%=      5-min Rain = 0
KMC4 261543Z 16016KT 24/20 A2999 RMK A01 T02390201  RH  079%=      5-min Rain = 0
KMC4 261544Z 16016KT 24/20 A2999 RMK A01 T02400201  RH  079%=      5-min Rain = 0
KMC4 261545Z 15013KT 24/20 A2999 RMK A01 T02400202  RH  079%=      5-min Rain = 0
KMC4 261546Z 15016G21KT 24/20 A2999 RMK A01 T02410202  RH  079%=      5-min Rain = 0
KMC4 261547Z 15014G19KT 24/20 A2999 RMK A01 T02410201  RH  078%=      5-min Rain = 0
KMC4 261548Z 16017KT 24/20 A2999 RMK A01 T02420203  RH  079%=      5-min Rain = 0
KMC4 261549Z 15020KT 24/20 A2998 RMK A01 T02420201  RH  078%=      5-min Rain = 0
KMC4 261550Z 15017KT 24/20 A2999 RMK A01 T02410200  RH  078%=      5-min Rain = 0
KMC4 261551Z 15018KT 24/20 A2998 RMK A01 T02400200  RH  078%=      5-min Rain = 0
KMC4 261552Z 15020KT 24/20 A2998 RMK A01 T02400200  RH  078%=      5-min Rain = 0
KMC4 261553Z 16018KT 24/20 A2999 RMK A01 T02400201  RH  079%=      5-min Rain = 0
KMC4 261554Z 16020KT 24/20 A2998 RMK A01 T02390200  RH  078%=      5-min Rain = 0
KMC4 261555Z 16018KT 24/20 A2998 RMK A01 T02390200  RH  079%=      5-min Rain = 0
KMC4 261556Z 16015KT 24/20 A2999 RMK A01 T02380201  RH  079%=      5-min Rain = 0
KMC4 261557Z 15017KT 24/20 A2999 RMK A01 T02380201  RH  080%=      5-min Rain = 0
KMC4 261558Z 15019KT 24/20 A2998 RMK A01 T02380200  RH  079%=      5-min Rain = 0
KMC4 261559Z 15016KT 24/20 A2998 RMK A01 T02390200  RH  079%=      5-min Rain = 0
KMC4 261600Z 15018KT 24/20 A2998 RMK A01 T02380200  RH  079%=      5-min Rain = 0
KMC4 261601Z 15019KT 24/20 A2998 RMK A01 T02380201  RH  079%=      5-min Rain = 0
KMC4 261602Z 15019G24KT 24/20 A2998 RMK A01 T02380201  RH  080%=      5-min Rain = 0
KMC4 261603Z 16016KT 24/20 A2998 RMK A01 T02390201  RH  079%=      5-min Rain = 0
KMC4 261604Z 15017KT 24/20 A2998 RMK A01 T02400202  RH  079%=      5-min Rain = 0
KMC4 261605Z 15016KT 24/20 A2998 RMK A01 T02410202  RH  079%=      5-min Rain = 0
KMC4 261606Z 16017KT 24/20 A2998 RMK A01 T02420201  RH  078%=      5-min Rain = 0
KMC4 261607Z 16016KT 24/20 A2998 RMK A01 T02420201  RH  078%=      5-min Rain = 0
KMC4 261608Z 16017KT 24/20 A2998 RMK A01 T02420201  RH  078%=      5-min Rain = 0
KMC4 261609Z 15015KT 24/20 A2998 RMK A01 T02420202  RH  078%=      5-min Rain = 0
KMC4 261610Z 15017KT 24/20 A2998 RMK A01 T02430203  RH  078%=      5-min Rain = 0
KMC4 261611Z 15017G22KT 24/20 A2998 RMK A01 T02430202  RH  078%=      5-min Rain = 0
KMC4 261612Z 15017KT 24/20 A2998 RMK A01 T02430202  RH  078%=      5-min Rain = 0
KMC4 261613Z 15016KT 24/20 A2999 RMK A01 T02430202  RH  078%=      5-min Rain = 0
KMC4 261614Z 15014KT 24/20 A2999 RMK A01 T02430202  RH  078%=      5-min Rain = 0
KMC4 261615Z 16014KT 24/20 A2999 RMK A01 T02430203  RH  078%=      5-min Rain = 0
KMC4 261616Z 15013G19KT 24/20 A2999 RMK A01 T02440204  RH  078%=      5-min Rain = 0
KMC4 261617Z 16012KT 24/20 A2999 RMK A01 T02440203  RH  078%=      5-min Rain = 0
KMC4 261618Z 16012KT 24/20 A2999 RMK A01 T02440203  RH  077%=      5-min Rain = 0
KMC4 261619Z 15013KT 24/20 A2999 RMK A01 T02440203  RH  078%=      5-min Rain = 0
KMC4 261620Z 14014KT 24/20 A2999 RMK A01 T02440203  RH  078%=      5-min Rain = 0
KMC4 261621Z 14018KT 24/20 A2999 RMK A01 T02440202  RH  078%=      5-min Rain = 0
KMC4 261622Z 15015KT 24/20 A2999 RMK A01 T02440201  RH  077%=      5-min Rain = 0
KMC4 261623Z 16017G22KT 24/20 A2999 RMK A01 T02440202  RH  077%=      5-min Rain = 0
KMC4 261624Z 15015KT 24/20 A2999 RMK A01 T02440201  RH  077%=      5-min Rain = 0
KMC4 261625Z 15017G22KT 24/20 A2999 RMK A01 T02430202  RH  077%=      5-min Rain = 0
KMC4 261626Z 15016KT 24/20 A2999 RMK A01 T02430200  RH  077%=      5-min Rain = 0
KMC4 261627Z 15016KT 24/20 A2999 RMK A01 T02430201  RH  077%=      5-min Rain = 0
KMC4 261628Z 14015G20KT 24/20 A2999 RMK A01 T02430201  RH  077%=      5-min Rain = 0
KMC4 261629Z 15015KT 24/20 A2999 RMK A01 T02430201  RH  078%=      5-min Rain = 0
KMC4 261630Z 15014G19KT 24/20 A2999 RMK A01 T02430202  RH  078%=      5-min Rain = 0
KMC4 261631Z 15018KT 24/20 A2999 RMK A01 T02420200  RH  077%=      5-min Rain = 0
KMC4 261632Z 15017KT 24/20 A2999 RMK A01 T02420200  RH  077%=      5-min Rain = 0
KMC4 261633Z 15017G22KT 24/20 A2999 RMK A01 T02410200  RH  077%=      5-min Rain = 0
KMC4 261634Z 14016G21KT 24/20 A2999 RMK A01 T02410200  RH  078%=      5-min Rain = 0
KMC4 261635Z 14016KT 24/20 A2999 RMK A01 T02410201  RH  078%=      5-min Rain = 0
KMC4 261636Z 15015G20KT 24/20 A2999 RMK A01 T02420201  RH  078%=      5-min Rain = 0
KMC4 261637Z 14015KT 24/20 A2999 RMK A01 T02420202  RH  078%=      5-min Rain = 0
KMC4 261638Z 15013KT 24/20 A2999 RMK A01 T02430202  RH  078%=      5-min Rain = 0
KMC4 261639Z 15012KT 24/20 A2999 RMK A01 T02430202  RH  078%=      5-min Rain = 0
KMC4 261640Z 14012G17KT 24/20 A2999 RMK A01 T02440204  RH  078%=      5-min Rain = 0
KMC4 261641Z 15016KT 25/20 A2999 RMK A01 T02460203  RH  077%=      5-min Rain = 0
KMC4 261642Z 15015G20KT 25/20 A2999 RMK A01 T02460202  RH  076%=      5-min Rain = 0
KMC4 261643Z 15013KT 25/20 A2999 RMK A01 T02450203  RH  077%=      5-min Rain = 0
KMC4 261644Z 15013KT 25/20 A2999 RMK A01 T02450203  RH  077%=      5-min Rain = 0
KMC4 261645Z 14013KT 25/21 A2999 RMK A01 T02450205  RH  078%=      5-min Rain = 0
KMC4 261646Z 14016KT 25/20 A2999 RMK A01 T02460204  RH  077%=      5-min Rain = 0
KMC4 261647Z 14017KT 25/20 A2999 RMK A01 T02460202  RH  077%=      5-min Rain = 0
KMC4 261648Z 15015KT 25/20 A2999 RMK A01 T02450202  RH  077%=      5-min Rain = 0
KMC4 261649Z 14014KT 25/20 A2999 RMK A01 T02450204  RH  078%=      5-min Rain = 0
KMC4 261650Z 14016KT 25/20 A2999 RMK A01 T02450203  RH  077%=      5-min Rain = 0
KMC4 261651Z 14015KT 25/20 A2999 RMK A01 T02450203  RH  077%=      5-min Rain = 0
KMC4 261652Z 14014KT 25/20 A2999 RMK A01 T02460204  RH  077%=      5-min Rain = 0
KMC4 261653Z 15016KT 25/20 A2999 RMK A01 T02450202  RH  077%=      5-min Rain = 0
KMC4 261654Z 14016KT 25/20 A2999 RMK A01 T02450202  RH  077%=      5-min Rain = 0
KMC4 261655Z 15014KT 24/20 A2999 RMK A01 T02440202  RH  077%=      5-min Rain = 0
KMC4 261656Z 15015KT 24/20 A2999 RMK A01 T02440203  RH  078%=      5-min Rain = 0
KMC4 261657Z 15014KT 24/20 A2999 RMK A01 T02440202  RH  077%=      5-min Rain = 0
KMC4 261658Z 14013KT 24/20 A2999 RMK A01 T02440203  RH  078%=      5-min Rain = 0
KMC4 261659Z 15014KT 24/20 A2999 RMK A01 T02440203  RH  078%=      5-min Rain = 0
KMC4 261700Z 16014KT 25/20 A2999 RMK A01 T02450202  RH  077%=      5-min Rain = 0
KMC4 261701Z 14015KT 25/20 A2999 RMK A01 T02450203  RH  077%=      5-min Rain = 0
KMC4 261702Z 14015KT 25/20 A2999 RMK A01 T02460203  RH  077%=      5-min Rain = 0
KMC4 261703Z 14011KT 25/21 A2999 RMK A01 T02470205  RH  078%=      5-min Rain = 0
KMC4 261704Z 14014KT 25/21 A2999 RMK A01 T02480206  RH  077%=      5-min Rain = 0
KMC4 261705Z 14015G21KT 25/20 A2999 RMK A01 T02490204  RH  076%=      5-min Rain = 0
KMC4 261706Z 14017KT 25/20 A2999 RMK A01 T02480202  RH  075%=      5-min Rain = 0
KMC4 261707Z 14018KT 25/20 A2999 RMK A01 T02470203  RH  076%=      5-min Rain = 0
KMC4 261708Z 14017KT 25/20 A2999 RMK A01 T02460202  RH  076%=      5-min Rain = 0
KMC4 261709Z 14017KT 25/20 A2999 RMK A01 T02460203  RH  077%=      5-min Rain = 0
KMC4 261710Z 15015KT 25/20 A2999 RMK A01 T02460202  RH  076%=      5-min Rain = 0
KMC4 261711Z 16015KT 25/20 A2999 RMK A01 T02460203  RH  077%=      5-min Rain = 0
KMC4 261712Z 16016G21KT 25/20 A2999 RMK A01 T02460202  RH  076%=      5-min Rain = 0
KMC4 261713Z 15013KT 25/20 A2999 RMK A01 T02460202  RH  077%=      5-min Rain = 0
KMC4 261714Z 15013KT 25/20 A2999 RMK A01 T02460202  RH  076%=      5-min Rain = 0
KMC4 261715Z 14012KT 25/20 A2999 RMK A01 T02470203  RH  077%=      5-min Rain = 0
KMC4 261716Z 14012KT 25/20 A2999 RMK A01 T02470203  RH  077%=      5-min Rain = 0
KMC4 261717Z 15011KT 25/20 A2999 RMK A01 T02470204  RH  077%=      5-min Rain = 0
KMC4 261718Z 16012G17KT 25/21 A2999 RMK A01 T02480206  RH  077%=      5-min Rain = 0
KMC4 261719Z 14015KT 25/20 A2999 RMK A01 T02490203  RH  076%=      5-min Rain = 0
KMC4 261720Z 14013KT 25/20 A2999 RMK A01 T02480204  RH  076%=      5-min Rain = 0
KMC4 261721Z 14016G21KT 25/20 A2999 RMK A01 T02480203  RH  076%=      5-min Rain = 0
KMC4 261722Z 14016KT 25/20 A2999 RMK A01 T02480201  RH  075%=      5-min Rain = 0
KMC4 261723Z 14013KT 25/20 A2999 RMK A01 T02470203  RH  076%=      5-min Rain = 0
KMC4 261724Z 15011KT 25/20 A2999 RMK A01 T02470203  RH  077%=      5-min Rain = 0
KMC4 261725Z 16014KT 25/20 A2999 RMK A01 T02470202  RH  076%=      5-min Rain = 0
KMC4 261726Z 15012G17KT 25/20 A2999 RMK A01 T02470204  RH  077%=      5-min Rain = 0
KMC4 261727Z 14015KT 25/20 A2999 RMK A01 T02470201  RH  076%=      5-min Rain = 0
KMC4 261728Z 15015KT 25/20 A2999 RMK A01 T02470201  RH  076%=      5-min Rain = 0
KMC4 261729Z 15014KT 25/20 A2999 RMK A01 T02470203  RH  076%=      5-min Rain = 0
KMC4 261730Z 13014KT 25/20 A2999 RMK A01 T02480204  RH  076%=      5-min Rain = 0
KMC4 261731Z 14016KT 25/20 A2999 RMK A01 T02480202  RH  076%=      5-min Rain = 0
KMC4 261732Z 14017KT 25/20 A2999 RMK A01 T02490202  RH  075%=      5-min Rain = 0
KMC4 261733Z 15016KT 25/20 A2999 RMK A01 T02490202  RH  075%=      5-min Rain = 0
KMC4 261734Z 16014KT 25/20 A2999 RMK A01 T02500204  RH  076%=      5-min Rain = 0
KMC4 261735Z 16015KT 25/20 A2999 RMK A01 T02500202  RH  075%=      5-min Rain = 0
KMC4 261736Z 16014KT 25/20 A2999 RMK A01 T02510203  RH  075%=      5-min Rain = 0
KMC4 261737Z 14013KT 25/21 A2999 RMK A01 T02510205  RH  076%=      5-min Rain = 0
KMC4 261738Z 14016KT 25/21 A2999 RMK A01 T02520205  RH  075%=      5-min Rain = 0
KMC4 261739Z 15014KT 25/20 A2999 RMK A01 T02540204  RH  074%=      5-min Rain = 0
KMC4 261740Z 15014KT 26/20 A2999 RMK A01 T02550204  RH  073%=      5-min Rain = 0
KMC4 261741Z 14014KT 26/21 A2999 RMK A01 T02560206  RH  074%=      5-min Rain = 0
KMC4 261742Z 14016KT 26/21 A2999 RMK A01 T02580208  RH  074%=      5-min Rain = 0
KMC4 261743Z 14016G21KT 26/21 A2998 RMK A01 T02590206  RH  073%=      5-min Rain = 0
KMC4 261744Z 14016KT 26/21 A2998 RMK A01 T02590205  RH  072%=      5-min Rain = 0
KMC4 261745Z 14019KT 26/21 A2998 RMK A01 T02580205  RH  072%=      5-min Rain = 0
KMC4 261746Z 14017KT 26/21 A2998 RMK A01 T02580205  RH  072%=      5-min Rain = 0
KMC4 261747Z 14019KT 26/21 A2998 RMK A01 T02590205  RH  072%=      5-min Rain = 0
KMC4 261748Z 14017KT 26/20 A2998 RMK A01 T02600204  RH  072%=      5-min Rain = 0
KMC4 261749Z 14017KT 26/21 A2998 RMK A01 T02590207  RH  073%=      5-min Rain = 0
KMC4 261750Z 14018KT 26/21 A2998 RMK A01 T02600206  RH  072%=      5-min Rain = 0
KMC4 261751Z 14015KT 26/21 A2998 RMK A01 T02600208  RH  073%=      5-min Rain = 0
KMC4 261752Z 14018KT 26/21 A2998 RMK A01 T02610207  RH  072%=      5-min Rain = 0
KMC4 261753Z 15017G22KT 26/21 A2998 RMK A01 T02620207  RH  072%=      5-min Rain = 0
KMC4 261754Z 15017KT 26/20 A2998 RMK A01 T02620204  RH  070%=      5-min Rain = 0
KMC4 261755Z 15016KT 26/21 A2998 RMK A01 T02600206  RH  072%=      5-min Rain = 0
KMC4 261756Z 15017KT 26/21 A2998 RMK A01 T02600206  RH  072%=      5-min Rain = 0
KMC4 261757Z 16015KT 26/21 A2998 RMK A01 T02590205  RH  072%=      5-min Rain = 0
KMC4 261758Z 16018KT 26/21 A2998 RMK A01 T02590205  RH  072%=      5-min Rain = 0
KMC4 261759Z 14014G19KT 26/21 A2998 RMK A01 T02590208  RH  074%=      5-min Rain = 0
KMC4 261800Z 14014KT 26/21 A2998 RMK A01 T02610210  RH  073%=      5-min Rain = 0
KMC4 261801Z 14017KT 26/21 A2998 RMK A01 T02620206  RH  071%=      5-min Rain = 0
KMC4 261802Z 15016KT 26/21 A2998 RMK A01 T02620207  RH  072%=      5-min Rain = 0
KMC4 261803Z 15017KT 26/21 A2998 RMK A01 T02610207  RH  072%=      5-min Rain = 0
KMC4 261804Z 15017G22KT 26/21 A2998 RMK A01 T02610206  RH  072%=      5-min Rain = 0
KMC4 261805Z 14018KT 26/21 A2998 RMK A01 T02610205  RH  071%=      5-min Rain = 0
KMC4 261806Z 14016KT 26/21 A2998 RMK A01 T02600208  RH  073%=      5-min Rain = 0
KMC4 261807Z 14015KT 26/21 A2998 RMK A01 T02620207  RH  072%=      5-min Rain = 0
KMC4 261808Z 15014G20KT 26/21 A2998 RMK A01 T02630205  RH  070%=      5-min Rain = 0
KMC4 261809Z 14017KT 26/21 A2998 RMK A01 T02630207  RH  071%=      5-min Rain = 0
KMC4 261810Z 14017G22KT 26/21 A2998 RMK A01 T02630205  RH  070%=      5-min Rain = 0
KMC4 261811Z 15016KT 26/21 A2998 RMK A01 T02630205  RH  071%=      5-min Rain = 0
KMC4 261812Z 14018KT 26/21 A2998 RMK A01 T02620206  RH  071%=      5-min Rain = 0
KMC4 261813Z 15016KT 26/21 A2998 RMK A01 T02630206  RH  071%=      5-min Rain = 0
KMC4 261814Z 14016G21KT 26/21 A2998 RMK A01 T02630207  RH  071%=      5-min Rain = 0
KMC4 261815Z 13019KT 26/21 A2998 RMK A01 T02630205  RH  070%=      5-min Rain = 0
KMC4 261816Z 13019KT 26/21 A2998 RMK A01 T02630205  RH  071%=      5-min Rain = 0
KMC4 261817Z 13017KT 26/21 A2998 RMK A01 T02620207  RH  072%=      5-min Rain = 0
KMC4 261818Z 13016KT 26/21 A2998 RMK A01 T02630208  RH  072%=      5-min Rain = 0
KMC4 261819Z 13017G22KT 26/21 A2998 RMK A01 T02630207  RH  071%=      5-min Rain = 0
KMC4 261820Z 14019KT 26/21 A2998 RMK A01 T02630207  RH  071%=      5-min Rain = 0
KMC4 261821Z 14018KT 26/20 A2998 RMK A01 T02640204  RH  069%=      5-min Rain = 0
KMC4 261822Z 15016KT 27/20 A2998 RMK A01 T02650204  RH  069%=      5-min Rain = 0
KMC4 261823Z 16016KT 27/20 A2998 RMK A01 T02650204  RH  069%=      5-min Rain = 0
KMC4 261824Z 15012KT 26/21 A2998 RMK A01 T02640206  RH  070%=      5-min Rain = 0
KMC4 261825Z 14013G19KT 27/21 A2998 RMK A01 T02650209  RH  072%=      5-min Rain = 0
KMC4 261826Z 13016KT 27/21 A2998 RMK A01 T02660208  RH  070%=      5-min Rain = 0
KMC4 261827Z 13016KT 27/21 A2998 RMK A01 T02670210  RH  071%=      5-min Rain = 0
KMC4 261828Z 13017KT 27/21 A2998 RMK A01 T02680208  RH  070%=      5-min Rain = 0
KMC4 261829Z 13018KT 27/21 A2997 RMK A01 T02680207  RH  069%=      5-min Rain = 0
KMC4 261830Z 14015KT 27/21 A2998 RMK A01 T02660209  RH  071%=      5-min Rain = 0
KMC4 261831Z 15016KT 27/21 A2998 RMK A01 T02670211  RH  071%=      5-min Rain = 0
KMC4 261832Z 15014G19KT 27/21 A2998 RMK A01 T02680212  RH  071%=      5-min Rain = 0
KMC4 261833Z 16019KT 27/21 A2997 RMK A01 T02700207  RH  069%=      5-min Rain = 0
KMC4 261834Z 15017KT 27/21 A2998 RMK A01 T02690207  RH  069%=      5-min Rain = 0
KMC4 261835Z 15017KT 27/21 A2997 RMK A01 T02680206  RH  069%=      5-min Rain = 0
KMC4 261836Z 16015G22KT 27/21 A2997 RMK A01 T02680208  RH  069%=      5-min Rain = 0
KMC4 261837Z 16019KT 27/21 A2997 RMK A01 T02680206  RH  068%=      5-min Rain = 0
KMC4 261838Z 16016KT 27/20 A2997 RMK A01 T02670204  RH  069%=      5-min Rain = 0
KMC4 261839Z 15015KT 27/21 A2997 RMK A01 T02670207  RH  070%=      5-min Rain = 0
KMC4 261840Z 14016KT 27/21 A2997 RMK A01 T02680210  RH  070%=      5-min Rain = 0
KMC4 261841Z 15017KT 27/21 A2997 RMK A01 T02700209  RH  069%=      5-min Rain = 0
KMC4 261842Z 15016KT 27/21 A2997 RMK A01 T02700207  RH  069%=      5-min Rain = 0
KMC4 261843Z 16017KT 27/21 A2997 RMK A01 T02700209  RH  069%=      5-min Rain = 0
KMC4 261844Z 16016KT 27/21 A2997 RMK A01 T02700207  RH  068%=      5-min Rain = 0
KMC4 261845Z 16015KT 27/21 A2997 RMK A01 T02710207  RH  068%=      5-min Rain = 0
KMC4 261846Z 15018G23KT 27/21 A2997 RMK A01 T02700207  RH  068%=      5-min Rain = 0
KMC4 261847Z 13018KT 27/21 A2997 RMK A01 T02700208  RH  069%=      5-min Rain = 0
KMC4 261848Z 13016KT 27/21 A2997 RMK A01 T02700207  RH  068%=      5-min Rain = 0
KMC4 261849Z 14014KT 27/21 A2997 RMK A01 T02710209  RH  069%=      5-min Rain = 0
KMC4 261850Z 14016G22KT 27/21 A2997 RMK A01 T02720207  RH  068%=      5-min Rain = 0
KMC4 261851Z 13019KT 27/21 A2997 RMK A01 T02720209  RH  068%=      5-min Rain = 0
KMC4 261852Z 13018KT 27/21 A2997 RMK A01 T02720206  RH  067%=      5-min Rain = 0
KMC4 261853Z 14019KT 27/21 A2997 RMK A01 T02720208  RH  068%=      5-min Rain = 0
KMC4 261854Z 14017KT 27/21 A2997 RMK A01 T02720207  RH  068%=      5-min Rain = 0
KMC4 261855Z 14019KT 27/21 A2997 RMK A01 T02730206  RH  067%=      5-min Rain = 0
KMC4 261856Z 15014KT 27/21 A2997 RMK A01 T02730208  RH  068%=      5-min Rain = 0
KMC4 261857Z 16016KT 27/21 A2997 RMK A01 T02720207  RH  068%=      5-min Rain = 0
KMC4 261858Z 16017KT 27/20 A2997 RMK A01 T02710204  RH  067%=      5-min Rain = 0
KMC4 261859Z 15016KT 27/21 A2997 RMK A01 T02700205  RH  068%=      5-min Rain = 0
KMC4 261900Z 14016KT 27/20 A2997 RMK A01 T02690204  RH  068%=      5-min Rain = 0
KMC4 261901Z 15017KT 27/21 A2997 RMK A01 T02710206  RH  068%=      5-min Rain = 0
KMC4 261902Z 14015KT 27/21 A2997 RMK A01 T02720206  RH  067%=      5-min Rain = 0
KMC4 261903Z 14018G23KT 27/21 A2997 RMK A01 T02730208  RH  067%=      5-min Rain = 0
KMC4 261904Z 13021KT 27/21 A2997 RMK A01 T02740207  RH  067%=      5-min Rain = 0
KMC4 261905Z 14018KT 27/21 A2997 RMK A01 T02740207  RH  067%=      5-min Rain = 0
KMC4 261906Z 14017KT 27/21 A2997 RMK A01 T02740207  RH  067%=      5-min Rain = 0
KMC4 261907Z 13018KT 27/21 A2997 RMK A01 T02730206  RH  067%=      5-min Rain = 0
KMC4 261908Z 13017KT 27/21 A2997 RMK A01 T02730205  RH  067%=      5-min Rain = 0
KMC4 261909Z 13013KT 27/21 A2997 RMK A01 T02720205  RH  067%=      5-min Rain = 0
KMC4 261910Z 14014KT 27/21 A2997 RMK A01 T02720207  RH  068%=      5-min Rain = 0
KMC4 261911Z 13013KT 27/21 A2997 RMK A01 T02720208  RH  068%=      5-min Rain = 0
KMC4 261912Z 13015KT 27/21 A2997 RMK A01 T02730209  RH  068%=      5-min Rain = 0
KMC4 261913Z 13016KT 27/21 A2997 RMK A01 T02740206  RH  066%=      5-min Rain = 0
KMC4 261914Z 13015KT 27/21 A2997 RMK A01 T02740206  RH  066%=      5-min Rain = 0
KMC4 261915Z 13014KT 27/21 A2997 RMK A01 T02740207  RH  067%=      5-min Rain = 0
KMC4 261916Z 13016KT 28/21 A2997 RMK A01 T02760207  RH  066%=      5-min Rain = 0
KMC4 261917Z 15013KT 28/21 A2997 RMK A01 T02760207  RH  066%=      5-min Rain = 0
KMC4 261918Z 14013KT 28/21 A2997 RMK A01 T02770205  RH  065%=      5-min Rain = 0
KMC4 261919Z 14018KT 28/21 A2997 RMK A01 T02770208  RH  066%=      5-min Rain = 0
KMC4 261920Z 15017KT 28/21 A2997 RMK A01 T02780205  RH  064%=      5-min Rain = 0
KMC4 261921Z 15017KT 28/21 A2997 RMK A01 T02780205  RH  064%=      5-min Rain = 0
KMC4 261922Z 15014KT 28/21 A2997 RMK A01 T02780205  RH  064%=      5-min Rain = 0
KMC4 261923Z 15015G20KT 28/21 A2997 RMK A01 T02780207  RH  065%=      5-min Rain = 0
KMC4 261924Z 14016KT 28/21 A2997 RMK A01 T02790205  RH  064%=      5-min Rain = 0
KMC4 261925Z 14015KT 28/21 A2997 RMK A01 T02780205  RH  064%=      5-min Rain = 0
KMC4 261926Z 14012KT 28/21 A2997 RMK A01 T02790206  RH  064%=      5-min Rain = 0
KMC4 261927Z 15016KT 28/21 A2997 RMK A01 T02790206  RH  065%=      5-min Rain = 0
KMC4 261928Z 14017KT 28/21 A2998 RMK A01 T02780205  RH  065%=      5-min Rain = 0
KMC4 261929Z 14015G20KT 28/21 A2998 RMK A01 T02770206  RH  065%=      5-min Rain = 0
KMC4 261930Z 15014KT 28/21 A2998 RMK A01 T02770206  RH  065%=      5-min Rain = 0
KMC4 261931Z 15016KT 28/21 A2998 RMK A01 T02770206  RH  065%=      5-min Rain = 0
KMC4 261932Z 14014KT 28/21 A2998 RMK A01 T02770205  RH  065%=      5-min Rain = 0
KMC4 261933Z 15015KT 28/21 A2998 RMK A01 T02770206  RH  065%=      5-min Rain = 0
KMC4 261934Z 16014G19KT 28/21 A2998 RMK A01 T02770205  RH  065%=      5-min Rain = 0
KMC4 261935Z 16016KT 28/21 A2998 RMK A01 T02770205  RH  065%=      5-min Rain = 0
KMC4 261936Z 15015KT 28/21 A2998 RMK A01 T02780205  RH  065%=      5-min Rain = 0
KMC4 261937Z 14016KT 28/21 A2998 RMK A01 T02790206  RH  064%=      5-min Rain = 0
KMC4 261938Z 16016KT 28/20 A2998 RMK A01 T02800204  RH  063%=      5-min Rain = 0
KMC4 261939Z 15018G23KT 28/20 A2998 RMK A01 T02810203  RH  063%=      5-min Rain = 0
KMC4 261940Z 15019KT 28/20 A2998 RMK A01 T02810203  RH  063%=      5-min Rain = 0
KMC4 261941Z 15017KT 28/20 A2998 RMK A01 T02810203  RH  063%=      5-min Rain = 0
KMC4 261942Z 15018KT 28/20 A2998 RMK A01 T02810202  RH  062%=      5-min Rain = 0
KMC4 261943Z 15016KT 28/20 A2998 RMK A01 T02790201  RH  062%=      5-min Rain = 0
KMC4 261944Z 16014KT 28/20 A2998 RMK A01 T02780203  RH  063%=      5-min Rain = 0
KMC4 261945Z 15014KT 28/20 A2998 RMK A01 T02780203  RH  064%=      5-min Rain = 0
KMC4 261946Z 15013KT 28/20 A2998 RMK A01 T02780204  RH  064%=      5-min Rain = 0
KMC4 261947Z 15013KT 28/21 A2998 RMK A01 T02780206  RH  065%=      5-min Rain = 0
KMC4 261948Z 14014KT 28/20 A2998 RMK A01 T02800204  RH  063%=      5-min Rain = 0
KMC4 261949Z 14016KT 28/20 A2998 RMK A01 T02790203  RH  063%=      5-min Rain = 0
KMC4 261950Z 15016KT 28/20 A2998 RMK A01 T02790203  RH  063%=      5-min Rain = 0
KMC4 261951Z 15012KT 28/20 A2998 RMK A01 T02790204  RH  064%=      5-min Rain = 0
KMC4 261952Z 15014KT 28/20 A2998 RMK A01 T02790204  RH  064%=      5-min Rain = 0
KMC4 261953Z 15011KT 28/20 A2998 RMK A01 T02780204  RH  064%=      5-min Rain = 0
KMC4 261954Z 14014KT 28/21 A2998 RMK A01 T02780205  RH  064%=      5-min Rain = 0
KMC4 261955Z 14013KT 28/21 A2998 RMK A01 T02780205  RH  064%=      5-min Rain = 0
KMC4 261956Z 14015KT 28/20 A2998 RMK A01 T02790204  RH  064%=      5-min Rain = 0
KMC4 261957Z 14013KT 28/20 A2998 RMK A01 T02790203  RH  063%=      5-min Rain = 0
KMC4 261958Z 14014KT 28/21 A2998 RMK A01 T02790205  RH  064%=      5-min Rain = 0
KMC4 261959Z 14013KT 28/20 A2998 RMK A01 T02790204  RH  064%=      5-min Rain = 0
KMC4 262000Z 14012KT 28/21 A2998 RMK A01 T02790205  RH  064%=      5-min Rain = 0
KMC4 262001Z 14013KT 28/20 A2997 RMK A01 T02790204  RH  064%=      5-min Rain = 0
KMC4 262002Z 14014KT 28/20 A2997 RMK A01 T02790204  RH  064%=      5-min Rain = 0
KMC4 262003Z 14014KT 28/20 A2997 RMK A01 T02790202  RH  063%=      5-min Rain = 0
KMC4 262004Z 15012KT 28/20 A2997 RMK A01 T02790203  RH  063%=      5-min Rain = 0
KMC4 262005Z 15011KT 28/20 A2997 RMK A01 T02790203  RH  063%=      5-min Rain = 0
KMC4 262006Z 15011KT 28/21 A2998 RMK A01 T02800207  RH  064%=      5-min Rain = 0
KMC4 262007Z 16012KT 28/21 A2998 RMK A01 T02820206  RH  064%=      5-min Rain = 0
KMC4 262008Z 15015KT 28/20 A2998 RMK A01 T02830204  RH  063%=      5-min Rain = 0
KMC4 262009Z 15014KT 28/20 A2997 RMK A01 T02830201  RH  061%=      5-min Rain = 0
KMC4 262010Z 15012KT 28/20 A2997 RMK A01 T02830203  RH  062%=      5-min Rain = 0
KMC4 262011Z 14012KT 28/20 A2997 RMK A01 T02830203  RH  062%=      5-min Rain = 0
KMC4 262012Z 15014KT 28/20 A2997 RMK A01 T02830202  RH  062%=      5-min Rain = 0
KMC4 262013Z 15014KT 28/20 A2997 RMK A01 T02830203  RH  062%=      5-min Rain = 0
KMC4 262014Z 13015KT 28/21 A2997 RMK A01 T02830205  RH  062%=      5-min Rain = 0
KMC4 262015Z 14013KT 28/20 A2997 RMK A01 T02830203  RH  062%=      5-min Rain = 0
KMC4 262016Z 14014KT 28/20 A2997 RMK A01 T02830204  RH  062%=      5-min Rain = 0
KMC4 262017Z 14012KT 28/21 A2997 RMK A01 T02830205  RH  063%=      5-min Rain = 0
KMC4 262018Z 15016KT 28/20 A2997 RMK A01 T02830203  RH  062%=      5-min Rain = 0
KMC4 262019Z 15013KT 28/20 A2997 RMK A01 T02830203  RH  062%=      5-min Rain = 0
KMC4 262020Z 16011KT 28/20 A2997 RMK A01 T02830204  RH  062%=      5-min Rain = 0
KMC4 262021Z 15011KT 28/20 A2997 RMK A01 T02830202  RH  061%=      5-min Rain = 0
KMC4 262022Z 16011KT 28/20 A2997 RMK A01 T02830203  RH  062%=      5-min Rain = 0
KMC4 262023Z 16011KT 28/20 A2997 RMK A01 T02830202  RH  062%=      5-min Rain = 0
KMC4 262024Z 14010KT 28/21 A2997 RMK A01 T02830205  RH  063%=      5-min Rain = 0
KMC4 262025Z 14011KT 28/21 A2997 RMK A01 T02840206  RH  063%=      5-min Rain = 0
KMC4 262026Z 13012KT 29/21 A2997 RMK A01 T02850208  RH  063%=      5-min Rain = 0
KMC4 262027Z 14015KT 29/21 A2997 RMK A01 T02850205  RH  062%=      5-min Rain = 0
KMC4 262028Z 13013KT 29/20 A2997 RMK A01 T02850203  RH  061%=      5-min Rain = 0
KMC4 262029Z 14012KT 29/21 A2997 RMK A01 T02850205  RH  062%=      5-min Rain = 0
KMC4 262030Z 15015KT 29/21 A2997 RMK A01 T02850205  RH  062%=      5-min Rain = 0
KMC4 262031Z 14012KT 29/21 A2996 RMK A01 T02850205  RH  062%=      5-min Rain = 0
KMC4 262032Z 14011KT 29/21 A2996 RMK A01 T02850210  RH  064%=      5-min Rain = 0
KMC4 262033Z 13011KT 29/21 A2996 RMK A01 T02860208  RH  063%=      5-min Rain = 0
KMC4 262034Z 13011KT 29/21 A2996 RMK A01 T02860210  RH  063%=      5-min Rain = 0
KMC4 262035Z 13013KT 29/21 A2996 RMK A01 T02870208  RH  063%=      5-min Rain = 0
KMC4 262036Z 13011KT 29/21 A2996 RMK A01 T02870209  RH  063%=      5-min Rain = 0
KMC4 262037Z 13011KT 29/21 A2996 RMK A01 T02870213  RH  064%=      5-min Rain = 0
KMC4 262038Z 13011KT 29/21 A2996 RMK A01 T02880211  RH  063%=      5-min Rain = 0
KMC4 262039Z 13011G17KT 29/21 A2996 RMK A01 T02890213  RH  064%=      5-min Rain = 0
KMC4 262040Z 13014KT 29/21 A2996 RMK A01 T02890209  RH  062%=      5-min Rain = 0
KMC4 262041Z 14012KT 29/21 A2996 RMK A01 T02890209  RH  062%=      5-min Rain = 0
KMC4 262042Z 14011KT 29/21 A2996 RMK A01 T02890207  RH  061%=      5-min Rain = 0
KMC4 262043Z 14014KT 29/21 A2996 RMK A01 T02890208  RH  062%=      5-min Rain = 0
KMC4 262044Z 14013KT 29/21 A2996 RMK A01 T02890206  RH  061%=      5-min Rain = 0
KMC4 262045Z 15015KT 29/21 A2996 RMK A01 T02880205  RH  061%=      5-min Rain = 0
KMC4 262046Z 15014KT 29/21 A2996 RMK A01 T02870205  RH  061%=      5-min Rain = 0
KMC4 262047Z 15014G19KT 29/20 A2996 RMK A01 T02860204  RH  061%=      5-min Rain = 0
KMC4 262048Z 14017KT 29/20 A2996 RMK A01 T02850203  RH  061%=      5-min Rain = 0
KMC4 262049Z 15014KT 28/20 A2995 RMK A01 T02840203  RH  061%=      5-min Rain = 0
KMC4 262050Z 13013KT 28/21 A2995 RMK A01 T02840205  RH  062%=      5-min Rain = 0
KMC4 262051Z 14013KT 28/21 A2995 RMK A01 T02830205  RH  063%=      5-min Rain = 0
KMC4 262052Z 14014KT 28/21 A2995 RMK A01 T02830205  RH  063%=      5-min Rain = 0
KMC4 262053Z 14014KT 28/21 A2995 RMK A01 T02830205  RH  063%=      5-min Rain = 0
KMC4 262054Z 13013G18KT 28/21 A2995 RMK A01 T02830207  RH  063%=      5-min Rain = 0
KMC4 262055Z 12013KT 28/21 A2995 RMK A01 T02820205  RH  063%=      5-min Rain = 0
KMC4 262056Z 14015KT 28/21 A2995 RMK A01 T02820205  RH  063%=      5-min Rain = 0
KMC4 262057Z 14014KT 28/21 A2995 RMK A01 T02810205  RH  063%=      5-min Rain = 0
KMC4 262058Z 13012KT 28/21 A2995 RMK A01 T02800207  RH  064%=      5-min Rain = 0
KMC4 262059Z 12011KT 28/21 A2995 RMK A01 T02800208  RH  065%=      5-min Rain = 0
KMC4 262100Z 14012KT 28/21 A2995 RMK A01 T02810210  RH  065%=      5-min Rain = 0
KMC4 262101Z 13013KT 28/21 A2995 RMK A01 T02800208  RH  065%=      5-min Rain = 0
KMC4 262102Z 14013KT 28/21 A2995 RMK A01 T02800207  RH  064%=      5-min Rain = 0
KMC4 262103Z 14014G19KT 28/21 A2995 RMK A01 T02800206  RH  064%=      5-min Rain = 0
KMC4 262104Z 14017KT 28/20 A2995 RMK A01 T02800204  RH  063%=      5-min Rain = 0
KMC4 262105Z 14016KT 28/20 A2995 RMK A01 T02800204  RH  063%=      5-min Rain = 0
KMC4 262106Z 14017KT 28/20 A2995 RMK A01 T02800204  RH  063%=      5-min Rain = 0
KMC4 262107Z 15016KT 28/20 A2995 RMK A01 T02800204  RH  063%=      5-min Rain = 0
KMC4 262108Z 15014KT 28/21 A2995 RMK A01 T02800205  RH  064%=      5-min Rain = 0
KMC4 262109Z 15013KT 28/21 A2996 RMK A01 T02800206  RH  064%=      5-min Rain = 0
KMC4 262110Z 15012KT 28/21 A2995 RMK A01 T02800209  RH  065%=      5-min Rain = 0
KMC4 262111Z 15011KT 28/21 A2995 RMK A01 T02810209  RH  065%=      5-min Rain = 0
KMC4 262112Z 16015KT 28/21 A2995 RMK A01 T02810208  RH  065%=      5-min Rain = 0
KMC4 262113Z 15016KT 28/21 A2995 RMK A01 T02810206  RH  064%=      5-min Rain = 0
KMC4 262114Z 15015KT 28/20 A2995 RMK A01 T02810204  RH  063%=      5-min Rain = 0
KMC4 262115Z 14015G20KT 28/21 A2995 RMK A01 T02810207  RH  064%=      5-min Rain = 0
KMC4 262116Z 14016KT 28/21 A2994 RMK A01 T02810205  RH  064%=      5-min Rain = 0
KMC4 262117Z 14014KT 28/21 A2994 RMK A01 T02810205  RH  063%=      5-min Rain = 0
KMC4 262118Z 13015KT 28/21 A2994 RMK A01 T02810207  RH  064%=      5-min Rain = 0
KMC4 262119Z 14016KT 28/21 A2994 RMK A01 T02810206  RH  064%=      5-min Rain = 0
KMC4 262120Z 14015KT 28/20 A2993 RMK A01 T02810204  RH  063%=      5-min Rain = 0
KMC4 262121Z 13016KT 28/20 A2993 RMK A01 T02810204  RH  063%=      5-min Rain = 0
KMC4 262122Z 14016KT 28/20 A2993 RMK A01 T02810204  RH  063%=      5-min Rain = 0
KMC4 262123Z 13014KT 28/20 A2993 RMK A01 T02810204  RH  063%=      5-min Rain = 0
KMC4 262124Z 13016KT 28/20 A2993 RMK A01 T02810204  RH  063%=      5-min Rain = 0
KMC4 262125Z 14018KT 28/20 A2993 RMK A01 T02810203  RH  063%=      5-min Rain = 0
KMC4 262126Z 14014KT 28/20 A2993 RMK A01 T02810204  RH  063%=      5-min Rain = 0
KMC4 262127Z 14017KT 28/21 A2993 RMK A01 T02810206  RH  064%=      5-min Rain = 0
KMC4 262128Z 13016KT 28/20 A2993 RMK A01 T02810204  RH  063%=      5-min Rain = 0
KMC4 262129Z 14015KT 28/21 A2993 RMK A01 T02810205  RH  064%=      5-min Rain = 0
KMC4 262130Z 14016KT 28/21 A2993 RMK A01 T02810206  RH  064%=      5-min Rain = 0
KMC4 262131Z 14016G21KT 28/21 A2993 RMK A01 T02810205  RH  063%=      5-min Rain = 0
KMC4 262132Z 14014KT 28/21 A2993 RMK A01 T02810206  RH  064%=      5-min Rain = 0
KMC4 262133Z 14016KT 28/20 A2993 RMK A01 T02800204  RH  063%=      5-min Rain = 0
KMC4 262134Z 14018KT 28/20 A2993 RMK A01 T02800203  RH  063%=      5-min Rain = 0
KMC4 262135Z 14014KT 28/21 A2993 RMK A01 T02790205  RH  064%=      5-min Rain = 0
KMC4 262136Z 14012KT 28/21 A2993 RMK A01 T02790207  RH  065%=      5-min Rain = 0
KMC4 262137Z 13014KT 28/21 A2993 RMK A01 T02780206  RH  065%=      5-min Rain = 0
KMC4 262138Z 13015KT 28/21 A2992 RMK A01 T02780205  RH  065%=      5-min Rain = 0
KMC4 262139Z 14014KT 28/21 A2992 RMK A01 T02780205  RH  065%=      5-min Rain = 0
KMC4 262140Z 14014G21KT 28/21 A2992 RMK A01 T02770205  RH  065%=      5-min Rain = 0
KMC4 262141Z 14016KT 28/20 A2992 RMK A01 T02770204  RH  064%=      5-min Rain = 0
KMC4 262142Z 14016KT 28/20 A2992 RMK A01 T02770204  RH  064%=      5-min Rain = 0
KMC4 262143Z 13016KT 28/20 A2992 RMK A01 T02770204  RH  064%=      5-min Rain = 0
KMC4 262144Z 14013KT 28/21 A2992 RMK A01 T02770207  RH  065%=      5-min Rain = 0
KMC4 262145Z 13016KT 28/21 A2992 RMK A01 T02770205  RH  065%=      5-min Rain = 0
KMC4 262146Z 13014KT 28/20 A2992 RMK A01 T02770203  RH  064%=      5-min Rain = 0
KMC4 262147Z 13016KT 28/20 A2992 RMK A01 T02770203  RH  064%=      5-min Rain = 0
KMC4 262148Z 14014KT 28/20 A2992 RMK A01 T02770204  RH  064%=      5-min Rain = 0
KMC4 262149Z 14013KT 28/21 A2992 RMK A01 T02780207  RH  065%=      5-min Rain = 0
KMC4 262150Z 13015KT 28/21 A2992 RMK A01 T02790205  RH  064%=      5-min Rain = 0
KMC4 262151Z 13013G18KT 28/20 A2992 RMK A01 T02780204  RH  064%=      5-min Rain = 0
KMC4 262152Z 13011G16KT 28/21 A2992 RMK A01 T02790207  RH  065%=      5-min Rain = 0
KMC4 262153Z 13015KT 28/21 A2992 RMK A01 T02790206  RH  064%=      5-min Rain = 0
KMC4 262154Z 13017KT 28/20 A2992 RMK A01 T02790203  RH  063%=      5-min Rain = 0
KMC4 262155Z 13017KT 28/20 A2992 RMK A01 T02790203  RH  063%=      5-min Rain = 0
KMC4 262156Z 13015KT 28/20 A2992 RMK A01 T02790203  RH  063%=      5-min Rain = 0
KMC4 262157Z 14017KT 28/20 A2992 RMK A01 T02790204  RH  064%=      5-min Rain = 0
KMC4 262158Z 14017KT 28/20 A2991 RMK A01 T02790203  RH  063%=      5-min Rain = 0
KMC4 262159Z 14015KT 28/20 A2991 RMK A01 T02790204  RH  064%=      5-min Rain = 0
KMC4 262200Z 13014KT 28/20 A2991 RMK A01 T02790204  RH  064%=      5-min Rain = 0
KMC4 262201Z 13015KT 28/21 A2991 RMK A01 T02790205  RH  064%=      5-min Rain = 0
KMC4 262202Z 13014KT 28/21 A2991 RMK A01 T02790205  RH  064%=      5-min Rain = 0
KMC4 262203Z 14017KT 28/20 A2991 RMK A01 T02790204  RH  064%=      5-min Rain = 0
KMC4 262204Z 13016KT 28/20 A2991 RMK A01 T02790203  RH  063%=      5-min Rain = 0
KMC4 262205Z 13013G18KT 28/21 A2991 RMK A01 T02790206  RH  064%=      5-min Rain = 0
KMC4 262206Z 14016G24KT 28/20 A299 RMK A01 T02790204  RH  064%=      5-min Rain = 0
KMC4 262207Z 12018KT 28/20 A299 RMK A01 T02790204  RH  064%=      5-min Rain = 0
KMC4 262208Z 13018KT 28/20 A299 RMK A01 T02790202  RH  063%=      5-min Rain = 0
KMC4 262209Z 13019KT 28/20 A299 RMK A01 T02780202  RH  063%=      5-min Rain = 0
KMC4 262210Z 13018KT 28/20 A299 RMK A01 T02780201  RH  063%=      5-min Rain = 0
KMC4 262211Z 13015G20KT 28/20 A299 RMK A01 T02780203  RH  064%=      5-min Rain = 0
KMC4 262212Z 14016G21KT 28/20 A299 RMK A01 T02780203  RH  064%=      5-min Rain = 0
KMC4 262213Z 13016KT 28/20 A299 RMK A01 T02780203  RH  064%=      5-min Rain = 0
KMC4 262214Z 13017KT 28/20 A2989 RMK A01 T02780202  RH  063%=      5-min Rain = 0
KMC4 262215Z 14019KT 28/20 A2989 RMK A01 T02780204  RH  064%=      5-min Rain = 0
KMC4 262216Z 14017G24KT 28/20 A2989 RMK A01 T02780201  RH  063%=      5-min Rain = 0
KMC4 262217Z 13016KT 28/20 A2989 RMK A01 T02780203  RH  064%=      5-min Rain = 0
KMC4 262218Z 13017KT 28/20 A2989 RMK A01 T02780202  RH  064%=      5-min Rain = 0
KMC4 262219Z 13017KT 28/20 A2989 RMK A01 T02770201  RH  063%=      5-min Rain = 0
KMC4 262220Z 13017KT 28/20 A2989 RMK A01 T02780203  RH  064%=      5-min Rain = 0
KMC4 262221Z 13018KT 28/20 A2989 RMK A01 T02780200  RH  063%=      5-min Rain = 0
KMC4 262222Z 13014G19KT 28/20 A2989 RMK A01 T02780202  RH  063%=      5-min Rain = 0
KMC4 262223Z 12017KT 28/20 A2988 RMK A01 T02780202  RH  063%=      5-min Rain = 0
KMC4 262224Z 13018KT 28/20 A2989 RMK A01 T02780201  RH  063%=      5-min Rain = 0
KMC4 262225Z 13018KT 28/20 A2989 RMK A01 T02780202  RH  063%=      5-min Rain = 0
KMC4 262226Z 13016KT 28/20 A2989 RMK A01 T02770201  RH  063%=      5-min Rain = 0
KMC4 262227Z 13016KT 28/20 A2989 RMK A01 T02780202  RH  063%=      5-min Rain = 0
KMC4 262228Z 12016KT 28/20 A2988 RMK A01 T02780201  RH  063%=      5-min Rain = 0
KMC4 262229Z 12016KT 28/20 A2988 RMK A01 T02770200  RH  063%=      5-min Rain = 0
KMC4 262230Z 12015G21KT 28/20 A2988 RMK A01 T02780200  RH  063%=      5-min Rain = 0
KMC4 262231Z 12016KT 28/20 A2987 RMK A01 T02780201  RH  063%=      5-min Rain = 0
KMC4 262232Z 12017KT 28/20 A2987 RMK A01 T02780200  RH  063%=      5-min Rain = 0
KMC4 262233Z 12019KT 28/20 A2986 RMK A01 T02780199  RH  062%=      5-min Rain = 0
KMC4 262234Z 12018KT 28/20 A2986 RMK A01 T02780199  RH  062%=      5-min Rain = 0
KMC4 262235Z 11020G25KT 28/20 A2986 RMK A01 T02780199  RH  062%=      5-min Rain = 0
KMC4 262236Z 12021G28KT 28/20 A2985 RMK A01 T02780198  RH  062%=      5-min Rain = 0
KMC4 262237Z 12024G29KT 28/20 A2985 RMK A01 T02780197  RH  061%=      5-min Rain = 0
KMC4 262238Z 12020G25KT 28/20 A2985 RMK A01 T02780198  RH  062%=      5-min Rain = 0
KMC4 262239Z 12022G28KT 28/20 A2985 RMK A01 T02770197  RH  061%=      5-min Rain = 0
KMC4 262240Z 12019KT 28/20 A2986 RMK A01 T02770198  RH  062%=      5-min Rain = 0
KMC4 262241Z 13017KT 28/20 A2986 RMK A01 T02770199  RH  062%=      5-min Rain = 0
KMC4 262242Z 14016KT 28/20 A2986 RMK A01 T02770201  RH  063%=      5-min Rain = 0
KMC4 262243Z 14014KT 28/20 A2987 RMK A01 T02770202  RH  064%=      5-min Rain = 0
KMC4 262244Z 14015KT 28/20 A2987 RMK A01 T02770202  RH  064%=      5-min Rain = 0
KMC4 262245Z 13016KT 28/20 A2987 RMK A01 T02770202  RH  064%=      5-min Rain = 0
KMC4 262246Z 14017KT 28/20 A2987 RMK A01 T02770201  RH  064%=      5-min Rain = 0
KMC4 262247Z 13021KT 28/20 A2987 RMK A01 T02770200  RH  063%=      5-min Rain = 0
KMC4 262248Z 13015KT 28/20 A2987 RMK A01 T02760201  RH  063%=      5-min Rain = 0
KMC4 262249Z 13014KT 28/20 A2987 RMK A01 T02760203  RH  064%=      5-min Rain = 0
KMC4 262250Z 14015G20KT 28/20 A2987 RMK A01 T02760201  RH  064%=      5-min Rain = 0
KMC4 262251Z 14017KT 28/20 A2987 RMK A01 T02760201  RH  064%=      5-min Rain = 0
KMC4 262252Z 13014KT 28/20 A2987 RMK A01 T02760202  RH  064%=      5-min Rain = 0
KMC4 262253Z 14018KT 28/20 A2986 RMK A01 T02750201  RH  064%=      5-min Rain = 0
KMC4 262254Z 13017G22KT 28/20 A2986 RMK A01 T02750202  RH  064%=      5-min Rain = 0
KMC4 262255Z 14019KT 28/20 A2986 RMK A01 T02750200  RH  064%=      5-min Rain = 0
KMC4 262256Z 13022KT 28/20 A2986 RMK A01 T02750199  RH  063%=      5-min Rain = 0
KMC4 262257Z 13018KT 28/20 A2986 RMK A01 T02750199  RH  063%=      5-min Rain = 0
KMC4 262258Z 13017KT 28/20 A2985 RMK A01 T02750199  RH  063%=      5-min Rain = 0
KMC4 262259Z 12016KT 27/20 A2985 RMK A01 T02740200  RH  064%=      5-min Rain = 0
KMC4 262300Z 13020G26KT 27/20 A2985 RMK A01 T02740200  RH  064%=      5-min Rain = 0
KMC4 262301Z 13018G24KT 27/20 A2985 RMK A01 T02730199  RH  064%=      5-min Rain = 0
KMC4 262302Z 13016G22KT 27/20 A2985 RMK A01 T02730200  RH  065%=      5-min Rain = 0
KMC4 262303Z 13021KT 27/20 A2985 RMK A01 T02720198  RH  064%=      5-min Rain = 0
KMC4 262304Z 13022KT 27/20 A2985 RMK A01 T02720197  RH  063%=      5-min Rain = 0
KMC4 262305Z 14023KT 27/20 A2985 RMK A01 T02720196  RH  063%=      5-min Rain = 0
KMC4 262306Z 14022G27KT 27/20 A2985 RMK A01 T02720196  RH  063%=      5-min Rain = 0
KMC4 262307Z 14020G25KT 27/20 A2985 RMK A01 T02720196  RH  063%=      5-min Rain = 0
KMC4 262308Z 13022KT 27/20 A2985 RMK A01 T02710195  RH  063%=      5-min Rain = 0
KMC4 262309Z 13018G26KT 27/20 A2985 RMK A01 T02720196  RH  063%=      5-min Rain = 0
KMC4 262310Z 13024KT 27/20 A2985 RMK A01 T02710195  RH  063%=      5-min Rain = 0
KMC4 262311Z 14020KT 27/20 A2985 RMK A01 T02710195  RH  063%=      5-min Rain = 0
KMC4 262312Z 13016KT 27/20 A2985 RMK A01 T02710196  RH  064%=      5-min Rain = 0
KMC4 262313Z 13017G23KT 27/20 A2985 RMK A01 T02710197  RH  064%=      5-min Rain = 0
KMC4 262314Z 14016KT 27/20 A2986 RMK A01 T02700197  RH  064%=      5-min Rain = 0
KMC4 262315Z 13017G22KT 27/20 A2986 RMK A01 T02700197  RH  064%=      5-min Rain = 0
KMC4 262316Z 14019KT 27/20 A2986 RMK A01 T02700195  RH  064%=      5-min Rain = 0
KMC4 262317Z 13018KT 27/20 A2986 RMK A01 T02700195  RH  063%=      5-min Rain = 0
KMC4 262318Z 13020KT 27/19 A2986 RMK A01 T02700194  RH  063%=      5-min Rain = 0
KMC4 262319Z 13018KT 27/19 A2986 RMK A01 T02700194  RH  063%=      5-min Rain = 0
KMC4 262320Z 13018KT 27/20 A2986 RMK A01 T02700195  RH  063%=      5-min Rain = 0
KMC4 262321Z 13014KT 27/20 A2987 RMK A01 T02700195  RH  063%=      5-min Rain = 0
KMC4 262322Z 14014KT 27/20 A2987 RMK A01 T02700195  RH  064%=      5-min Rain = 0
KMC4 262323Z 14015KT 27/20 A2987 RMK A01 T02700195  RH  064%=      5-min Rain = 0
KMC4 262324Z 13014KT 27/20 A2988 RMK A01 T02700196  RH  064%=      5-min Rain = 0
KMC4 262325Z 14012KT 27/20 A2988 RMK A01 T02690196  RH  064%=      5-min Rain = 0
KMC4 262326Z 14014KT 27/20 A2988 RMK A01 T02690197  RH  064%=      5-min Rain = 0
KMC4 262327Z 13014KT 27/20 A2988 RMK A01 T02690196  RH  064%=      5-min Rain = 0
KMC4 262328Z 13014KT 27/20 A2988 RMK A01 T02690195  RH  064%=      5-min Rain = 0
KMC4 262329Z 13012KT 27/20 A2988 RMK A01 T02690196  RH  064%=      5-min Rain = 0
KMC4 262330Z 13012KT 27/20 A2988 RMK A01 T02690197  RH  064%=      5-min Rain = 0
KMC4 262331Z 15013KT 27/20 A2988 RMK A01 T02690197  RH  065%=      5-min Rain = 0
KMC4 262332Z 13013KT 27/20 A2988 RMK A01 T02690196  RH  064%=      5-min Rain = 0
KMC4 262333Z 14014KT 27/20 A2988 RMK A01 T02690195  RH  064%=      5-min Rain = 0
KMC4 262334Z 14013KT 27/20 A2988 RMK A01 T02690195  RH  064%=      5-min Rain = 0
KMC4 262335Z 14014KT 27/20 A2988 RMK A01 T02690196  RH  064%=      5-min Rain = 0
KMC4 262336Z 14016KT 27/20 A2988 RMK A01 T02690195  RH  064%=      5-min Rain = 0
KMC4 262337Z 14011KT 27/20 A2989 RMK A01 T02690197  RH  065%=      5-min Rain = 0
KMC4 262338Z 14011KT 27/20 A2989 RMK A01 T02690198  RH  065%=      5-min Rain = 0
KMC4 262339Z 15014KT 27/20 A2989 RMK A01 T02690198  RH  065%=      5-min Rain = 0
KMC4 262340Z 15014KT 27/20 A2989 RMK A01 T02690196  RH  064%=      5-min Rain = 0
KMC4 262341Z 14012KT 27/20 A2989 RMK A01 T02690197  RH  065%=      5-min Rain = 0
KMC4 262342Z 13012KT 27/20 A2989 RMK A01 T02690197  RH  065%=      5-min Rain = 0
KMC4 262343Z 14011KT 27/20 A2989 RMK A01 T02690198  RH  065%=      5-min Rain = 0
KMC4 262344Z 14012KT 27/20 A2989 RMK A01 T02690197  RH  065%=      5-min Rain = 0
KMC4 262345Z 14012KT 27/20 A2989 RMK A01 T02690198  RH  065%=      5-min Rain = 0
KMC4 262346Z 14012KT 27/20 A2989 RMK A01 T02690197  RH  065%=      5-min Rain = 0
KMC4 262347Z 16011KT 27/20 A2989 RMK A01 T02690197  RH  065%=      5-min Rain = 0
KMC4 262348Z 15010KT 27/20 A2989 RMK A01 T02690198  RH  065%=      5-min Rain = 0
KMC4 262349Z 14008KT 27/20 A2989 RMK A01 T02690199  RH  065%=      5-min Rain = 0
KMC4 262350Z 14009KT 27/20 A2989 RMK A01 T02690200  RH  066%=      5-min Rain = 0
KMC4 262351Z 13013KT 27/20 A2989 RMK A01 T02680198  RH  065%=      5-min Rain = 0
KMC4 262352Z 14011KT 27/20 A2989 RMK A01 T02680196  RH  065%=      5-min Rain = 0
KMC4 262353Z 14010KT 27/20 A2989 RMK A01 T02680198  RH  065%=      5-min Rain = 0
KMC4 262354Z 15012KT 27/20 A2989 RMK A01 T02680197  RH  065%=      5-min Rain = 0
KMC4 262355Z 13015KT 27/20 A2989 RMK A01 T02680196  RH  065%=      5-min Rain = 0
KMC4 262356Z 15014KT 27/20 A2989 RMK A01 T02690196  RH  064%=      5-min Rain = 0
KMC4 262357Z 14016KT 27/20 A2989 RMK A01 T02690195  RH  064%=      5-min Rain = 0
KMC4 262358Z 14012KT 27/20 A2989 RMK A01 T02690195  RH  064%=      5-min Rain = 0
KMC4 262359Z 14010KT 27/20 A2989 RMK A01 T02690197  RH  065%=      5-min Rain = 0
KMC4 270000Z 13013KT 27/20 A2989 RMK A01 T02690196  RH  064%=      5-min Rain = 0
KMC4 270001Z 14010KT 27/20 A2989 RMK A01 T02690197  RH  065%=      5-min Rain = 0
KMC4 270002Z 14012KT 27/20 A2989 RMK A01 T02680198  RH  065%=      5-min Rain = 0
KMC4 270003Z 14013KT 27/20 A2989 RMK A01 T02680196  RH  065%=      5-min Rain = 0
KMC4 270004Z 13012KT 27/20 A2989 RMK A01 T02680196  RH  065%=      5-min Rain = 0
KMC4 270005Z 13014KT 27/20 A2989 RMK A01 T02680195  RH  064%=      5-min Rain = 0
KMC4 270006Z 13012KT 27/20 A2989 RMK A01 T02680195  RH  064%=      5-min Rain = 0
KMC4 270007Z 13013KT 27/19 A2989 RMK A01 T02680194  RH  064%=      5-min Rain = 0
KMC4 270008Z 13013KT 27/20 A2989 RMK A01 T02680195  RH  064%=      5-min Rain = 0
KMC4 270009Z 13011KT 27/20 A2989 RMK A01 T02680195  RH  064%=      5-min Rain = 0
KMC4 270010Z 13009KT 27/20 A2989 RMK A01 T02680197  RH  065%=      5-min Rain = 0
KMC4 270011Z 13010KT 27/20 A2989 RMK A01 T02680197  RH  065%=      5-min Rain = 0
KMC4 270012Z 13011KT 27/20 A2989 RMK A01 T02670196  RH  065%=      5-min Rain = 0
KMC4 270013Z 13010KT 27/20 A2989 RMK A01 T02680195  RH  064%=      5-min Rain = 0
KMC4 270014Z 13011KT 27/20 A2989 RMK A01 T02680196  RH  065%=      5-min Rain = 0
KMC4 270015Z 13010KT 27/20 A299 RMK A01 T02680195  RH  064%=      5-min Rain = 0
KMC4 270016Z 13011KT 27/20 A299 RMK A01 T02680195  RH  064%=      5-min Rain = 0
KMC4 270017Z 13008KT 27/20 A299 RMK A01 T02680195  RH  064%=      5-min Rain = 0
KMC4 270018Z 13011KT 27/19 A299 RMK A01 T02690194  RH  064%=      5-min Rain = 0
KMC4 270019Z 13009KT 27/20 A299 RMK A01 T02700195  RH  064%=      5-min Rain = 0
KMC4 270020Z 13009KT 27/20 A299 RMK A01 T02700195  RH  063%=      5-min Rain = 0
KMC4 270021Z 13011KT 27/19 A299 RMK A01 T02700194  RH  063%=      5-min Rain = 0
KMC4 270022Z 13015KT 27/19 A2989 RMK A01 T02710192  RH  062%=      5-min Rain = 0
KMC4 270023Z 13013KT 27/19 A2989 RMK A01 T02720192  RH  062%=      5-min Rain = 0
KMC4 270024Z 13011KT 27/19 A2989 RMK A01 T02720193  RH  062%=      5-min Rain = 0
KMC4 270025Z 13010KT 27/19 A2989 RMK A01 T02730193  RH  062%=      5-min Rain = 0
KMC4 270026Z 12010KT 27/19 A2989 RMK A01 T02720193  RH  062%=      5-min Rain = 0
KMC4 270027Z 12012KT 27/19 A2989 RMK A01 T02720192  RH  062%=      5-min Rain = 0
KMC4 270028Z 13014KT 27/19 A2989 RMK A01 T02720191  RH  061%=      5-min Rain = 0
KMC4 270029Z 13011KT 27/19 A2989 RMK A01 T02720190  RH  061%=      5-min Rain = 0
KMC4 270030Z 13010KT 27/19 A2989 RMK A01 T02720193  RH  062%=      5-min Rain = 0
KMC4 270031Z 13009KT 27/19 A2989 RMK A01 T02720192  RH  062%=      5-min Rain = 0
KMC4 270032Z 13011KT 27/19 A2989 RMK A01 T02720193  RH  062%=      5-min Rain = 0
KMC4 270033Z 14012KT 27/19 A2989 RMK A01 T02720191  RH  061%=      5-min Rain = 0
KMC4 270034Z 12010KT 27/19 A2989 RMK A01 T02710191  RH  062%=      5-min Rain = 0
KMC4 270035Z 13010KT 27/19 A2989 RMK A01 T02710192  RH  062%=      5-min Rain = 0
KMC4 270036Z 13009KT 27/19 A2989 RMK A01 T02710192  RH  062%=      5-min Rain = 0
KMC4 270037Z 12010KT 27/19 A2989 RMK A01 T02710193  RH  063%=      5-min Rain = 0
KMC4 270038Z 13011KT 27/19 A2989 RMK A01 T02710191  RH  062%=      5-min Rain = 0
KMC4 270039Z 13011KT 27/19 A2989 RMK A01 T02710191  RH  062%=      5-min Rain = 0
KMC4 270040Z 13009KT 27/19 A2989 RMK A01 T02710193  RH  062%=      5-min Rain = 0
KMC4 270041Z 14011KT 27/19 A2989 RMK A01 T02700191  RH  062%=      5-min Rain = 0
KMC4 270042Z 13009KT 27/19 A2989 RMK A01 T02700192  RH  062%=      5-min Rain = 0
KMC4 270043Z 14008KT 27/19 A2989 RMK A01 T02700191  RH  062%=      5-min Rain = 0
KMC4 270044Z 14012KT 27/19 A2989 RMK A01 T02700191  RH  062%=      5-min Rain = 0
KMC4 270045Z 13011KT 27/19 A2989 RMK A01 T02710190  RH  061%=      5-min Rain = 0
KMC4 270046Z 14013KT 27/19 A2989 RMK A01 T02710189  RH  061%=      5-min Rain = 0
KMC4 270047Z 14013KT 27/19 A2989 RMK A01 T02710191  RH  061%=      5-min Rain = 0
KMC4 270048Z 13010KT 27/19 A2989 RMK A01 T02710190  RH  061%=      5-min Rain = 0
KMC4 270049Z 14014G19KT 27/19 A2989 RMK A01 T02710190  RH  061%=      5-min Rain = 0
KMC4 270050Z 13015G22KT 27/19 A2988 RMK A01 T02720189  RH  061%=      5-min Rain = 0
KMC4 270051Z 13012KT 27/19 A2989 RMK A01 T02720189  RH  061%=      5-min Rain = 0
KMC4 270052Z 13015KT 27/19 A2988 RMK A01 T02720189  RH  060%=      5-min Rain = 0
KMC4 270053Z 14017KT 27/19 A2988 RMK A01 T02720188  RH  060%=      5-min Rain = 0
KMC4 270054Z 13014KT 27/19 A2988 RMK A01 T02720188  RH  060%=      5-min Rain = 0
KMC4 270055Z 13014KT 27/19 A2988 RMK A01 T02720189  RH  060%=      5-min Rain = 0
KMC4 270056Z 13018KT 27/19 A2988 RMK A01 T02720188  RH  060%=      5-min Rain = 0
KMC4 270057Z 13015G20KT 27/19 A2988 RMK A01 T02720189  RH  061%=      5-min Rain = 0
KMC4 270058Z 12016G21KT 27/19 A2988 RMK A01 T02710189  RH  061%=      5-min Rain = 0
KMC4 270059Z 13015KT 27/19 A2988 RMK A01 T02710189  RH  061%=      5-min Rain = 0
KMC4 270100Z 13014KT 27/19 A2988 RMK A01 T02710190  RH  061%=      5-min Rain = 0
KMC4 270101Z 13016G21KT 27/19 A2988 RMK A01 T02710188  RH  061%=      5-min Rain = 0
KMC4 270102Z 13016G22KT 27/19 A2988 RMK A01 T02710188  RH  060%=      5-min Rain = 0
KMC4 270103Z 14015G21KT 27/19 A2988 RMK A01 T02710187  RH  060%=      5-min Rain = 0
KMC4 270104Z 14015G20KT 27/19 A2988 RMK A01 T02710188  RH  061%=      5-min Rain = 0
KMC4 270105Z 14020KT 27/19 A2987 RMK A01 T02710186  RH  060%=      5-min Rain = 0
KMC4 270106Z 14020KT 27/19 A2987 RMK A01 T02710186  RH  060%=      5-min Rain = 0
KMC4 270107Z 14024G30KT 27/19 A2987 RMK A01 T02720185  RH  059%=      5-min Rain = 0
KMC4 270108Z 14020KT 27/19 A2987 RMK A01 T02720186  RH  059%=      5-min Rain = 0
KMC4 270109Z 14019KT 27/19 A2987 RMK A01 T02720186  RH  059%=      5-min Rain = 0
KMC4 270110Z 14015G21KT 27/19 A2987 RMK A01 T02720188  RH  060%=      5-min Rain = 0
KMC4 270111Z 14019G25KT 27/19 A2987 RMK A01 T02710187  RH  060%=      5-min Rain = 0
KMC4 270112Z 15021KT 27/19 A2987 RMK A01 T02710185  RH  059%=      5-min Rain = 0
KMC4 270113Z 15020KT 27/19 A2987 RMK A01 T02710185  RH  059%=      5-min Rain = 0
KMC4 270114Z 15019G25KT 27/19 A2987 RMK A01 T02720186  RH  060%=      5-min Rain = 0
KMC4 270115Z 15020G25KT 27/19 A2987 RMK A01 T02710185  RH  059%=      5-min Rain = 0
KMC4 270116Z 15025KT 27/19 A2986 RMK A01 T02720185  RH  059%=      5-min Rain = 0
KMC4 270117Z 15022KT 27/19 A2986 RMK A01 T02720185  RH  059%=      5-min Rain = 0
KMC4 270118Z 15022KT 27/19 A2987 RMK A01 T02720185  RH  059%=      5-min Rain = 0
KMC4 270119Z 15022KT 27/19 A2986 RMK A01 T02720185  RH  059%=      5-min Rain = 0
KMC4 270120Z 15023G32KT 27/18 A2986 RMK A01 T02720184  RH  059%=      5-min Rain = 0
KMC4 270121Z 15020G26KT 27/18 A2986 RMK A01 T02710184  RH  059%=      5-min Rain = 0
KMC4 270122Z 15019G24KT 27/19 A2986 RMK A01 T02710185  RH  059%=      5-min Rain = 0
KMC4 270123Z 15022G27KT 27/19 A2986 RMK A01 T02700185  RH  059%=      5-min Rain = 0
KMC4 270124Z 15020KT 27/18 A2986 RMK A01 T02700184  RH  059%=      5-min Rain = 0
KMC4 270125Z 15020G25KT 27/18 A2986 RMK A01 T02700184  RH  060%=      5-min Rain = 0
KMC4 270126Z 15024G31KT 27/19 A2986 RMK A01 T02690185  RH  060%=      5-min Rain = 0
KMC4 270127Z 15025G30KT 27/18 A2986 RMK A01 T02690183  RH  059%=      5-min Rain = 0
KMC4 270128Z 15018KT 27/18 A2986 RMK A01 T02700184  RH  059%=      5-min Rain = 0
KMC4 270129Z 15021G26KT 27/18 A2986 RMK A01 T02700184  RH  059%=      5-min Rain = 0
KMC4 270130Z 16018KT 27/19 A2987 RMK A01 T02690185  RH  060%=      5-min Rain = 0
KMC4 270131Z 15019G24KT 27/18 A2986 RMK A01 T02690184  RH  060%=      5-min Rain = 0
KMC4 270132Z 16020KT 27/18 A2987 RMK A01 T02680184  RH  060%=      5-min Rain = 0
KMC4 270133Z 15022KT 27/18 A2986 RMK A01 T02680183  RH  060%=      5-min Rain = 0
KMC4 270134Z 15022G27KT 27/18 A2986 RMK A01 T02680183  RH  060%=      5-min Rain = 0
KMC4 270135Z 15023G28KT 27/18 A2986 RMK A01 T02680183  RH  060%=      5-min Rain = 0
KMC4 270136Z 15024G30KT 27/18 A2986 RMK A01 T02680183  RH  059%=      5-min Rain = 0
KMC4 270137Z 15020KT 27/18 A2986 RMK A01 T02690183  RH  060%=      5-min Rain = 0
KMC4 270138Z 16018KT 27/18 A2987 RMK A01 T02680184  RH  060%=      5-min Rain = 0
KMC4 270139Z 16021KT 27/18 A2986 RMK A01 T02680184  RH  060%=      5-min Rain = 0
KMC4 270140Z 16019G24KT 27/18 A2987 RMK A01 T02680184  RH  060%=      5-min Rain = 0
KMC4 270141Z 15021G27KT 27/18 A2987 RMK A01 T02670184  RH  060%=      5-min Rain = 0
KMC4 270142Z 16020G27KT 27/18 A2986 RMK A01 T02670184  RH  060%=      5-min Rain = 0
KMC4 270143Z 16020G25KT 27/18 A2987 RMK A01 T02660184  RH  061%=      5-min Rain = 0
KMC4 270144Z 15020KT 27/18 A2987 RMK A01 T02670184  RH  060%=      5-min Rain = 0
KMC4 270145Z 16020KT 27/18 A2987 RMK A01 T02660184  RH  061%=      5-min Rain = 0
KMC4 270146Z 16018KT 27/19 A2987 RMK A01 T02660185  RH  061%=      5-min Rain = 0
KMC4 270147Z 16020KT 27/19 A2987 RMK A01 T02660185  RH  061%=      5-min Rain = 0
KMC4 270148Z 16018KT 27/18 A2986 RMK A01 T02660184  RH  061%=      5-min Rain = 0
KMC4 270149Z 16019G24KT 27/19 A2986 RMK A01 T02650185  RH  061%=      5-min Rain = 0
KMC4 270150Z 17022G27KT 27/19 A2986 RMK A01 T02650185  RH  061%=      5-min Rain = 0
KMC4 270151Z 16019G25KT 27/18 A2987 RMK A01 T02650184  RH  061%=      5-min Rain = 0
KMC4 270152Z 16020G25KT 27/18 A2986 RMK A01 T02650184  RH  061%=      5-min Rain = 0
KMC4 270153Z 16019G26KT 27/18 A2986 RMK A01 T02650184  RH  061%=      5-min Rain = 0
KMC4 270154Z 16018KT 27/18 A2987 RMK A01 T02650184  RH  061%=      5-min Rain = 0
KMC4 270155Z 16021G26KT 27/18 A2986 RMK A01 T02650184  RH  061%=      5-min Rain = 0
KMC4 270156Z 16021G26KT 27/19 A2987 RMK A01 T02650185  RH  061%=      5-min Rain = 0
KMC4 270157Z 16020G25KT 27/18 A2987 RMK A01 T02650184  RH  061%=      5-min Rain = 0
KMC4 270158Z 16021KT 27/18 A2987 RMK A01 T02650184  RH  061%=      5-min Rain = 0
KMC4 270159Z 16020KT 27/18 A2987 RMK A01 T02650184  RH  061%=      5-min Rain = 0
KMC4 270200Z 16018KT 26/18 A2987 RMK A01 T02640184  RH  061%=      5-min Rain = 0
KMC4 270201Z 15018KT 26/19 A2987 RMK A01 T02640185  RH  062%=      5-min Rain = 0
KMC4 270202Z 15021KT 26/18 A2987 RMK A01 T02630184  RH  062%=      5-min Rain = 0
KMC4 270203Z 15019KT 26/18 A2987 RMK A01 T02630184  RH  062%=      5-min Rain = 0
KMC4 270204Z 15020KT 26/19 A2987 RMK A01 T02630185  RH  062%=      5-min Rain = 0
KMC4 270205Z 15021KT 26/18 A2987 RMK A01 T02630184  RH  062%=      5-min Rain = 0
KMC4 270206Z 15017KT 26/19 A2987 RMK A01 T02630185  RH  062%=      5-min Rain = 0
KMC4 270207Z 16016G21KT 26/19 A2987 RMK A01 T02620185  RH  062%=      5-min Rain = 0
KMC4 270208Z 16020KT 26/19 A2987 RMK A01 T02610185  RH  063%=      5-min Rain = 0
KMC4 270209Z 15018KT 26/19 A2987 RMK A01 T02620185  RH  063%=      5-min Rain = 0
KMC4 270210Z 16017KT 26/19 A2987 RMK A01 T02610185  RH  063%=      5-min Rain = 0
KMC4 270211Z 15019KT 26/19 A2987 RMK A01 T02610185  RH  063%=      5-min Rain = 0
KMC4 270212Z 15019KT 26/19 A2987 RMK A01 T02610185  RH  063%=      5-min Rain = 0
KMC4 270213Z 15015G20KT 26/19 A2987 RMK A01 T02610185  RH  063%=      5-min Rain = 0
KMC4 270214Z 15016KT 26/19 A2987 RMK A01 T02600186  RH  063%=      5-min Rain = 0
KMC4 270215Z 15020KT 26/19 A2987 RMK A01 T02590185  RH  063%=      5-min Rain = 0
KMC4 270216Z 15017KT 26/19 A2987 RMK A01 T02600185  RH  063%=      5-min Rain = 0
KMC4 270217Z 15016KT 26/19 A2987 RMK A01 T02600185  RH  063%=      5-min Rain = 0
KMC4 270218Z 16018KT 26/19 A2987 RMK A01 T02590185  RH  064%=      5-min Rain = 0
KMC4 270219Z 15019KT 26/19 A2987 RMK A01 T02590185  RH  064%=      5-min Rain = 0
KMC4 270220Z 15019KT 26/19 A2986 RMK A01 T02590185  RH  064%=      5-min Rain = 0
KMC4 270221Z 16016KT 26/19 A2987 RMK A01 T02590185  RH  064%=      5-min Rain = 0
KMC4 270222Z 15016KT 26/19 A2987 RMK A01 T02580186  RH  064%=      5-min Rain = 0
KMC4 270223Z 15015KT 26/19 A2987 RMK A01 T02580186  RH  065%=      5-min Rain = 0
KMC4 270224Z 15017KT 26/19 A2987 RMK A01 T02570186  RH  065%=      5-min Rain = 0
KMC4 270225Z 15015KT 26/19 A2987 RMK A01 T02560186  RH  065%=      5-min Rain = 0
KMC4 270226Z 15016KT 26/19 A2987 RMK A01 T02560187  RH  065%=      5-min Rain = 0
KMC4 270227Z 15016KT 26/19 A2987 RMK A01 T02550187  RH  066%=      5-min Rain = 0
KMC4 270228Z 15013KT 26/19 A2987 RMK A01 T02550187  RH  066%=      5-min Rain = 0
KMC4 270229Z 15014KT 25/19 A2987 RMK A01 T02540187  RH  066%=      5-min Rain = 0
KMC4 270230Z 15014KT 25/19 A2987 RMK A01 T02530187  RH  067%=      5-min Rain = 0
KMC4 270231Z 16019KT 25/19 A2987 RMK A01 T02530185  RH  066%=      5-min Rain = 0
KMC4 270232Z 15018KT 26/18 A2987 RMK A01 T02550184  RH  065%=      5-min Rain = 0
KMC4 270233Z 15016KT 26/19 A2987 RMK A01 T02550185  RH  065%=      5-min Rain = 0
KMC4 270234Z 16014KT 26/19 A2987 RMK A01 T02550186  RH  065%=      5-min Rain = 0
KMC4 270235Z 15015KT 25/19 A2987 RMK A01 T02540186  RH  066%=      5-min Rain = 0
KMC4 270236Z 15016KT 25/19 A2987 RMK A01 T02530185  RH  066%=      5-min Rain = 0
KMC4 270237Z 15019KT 25/18 A2987 RMK A01 T02530182  RH  065%=      5-min Rain = 0
KMC4 270238Z 15015KT 25/18 A2987 RMK A01 T02540182  RH  065%=      5-min Rain = 0
KMC4 270239Z 15016KT 25/18 A2987 RMK A01 T02540183  RH  065%=      5-min Rain = 0
KMC4 270240Z 15016KT 25/18 A2987 RMK A01 T02530182  RH  065%=      5-min Rain = 0
KMC4 270241Z 15017KT 25/18 A2987 RMK A01 T02530183  RH  065%=      5-min Rain = 0
KMC4 270242Z 14019KT 25/18 A2987 RMK A01 T02530183  RH  065%=      5-min Rain = 0
KMC4 270243Z 15018KT 25/18 A2987 RMK A01 T02530183  RH  065%=      5-min Rain = 0
KMC4 270244Z 15018KT 25/18 A2987 RMK A01 T02530182  RH  065%=      5-min Rain = 0
KMC4 270245Z 14017G22KT 25/18 A2987 RMK A01 T02530182  RH  065%=      5-min Rain = 0
KMC4 270246Z 15018KT 25/18 A2987 RMK A01 T02530182  RH  065%=      5-min Rain = 0
KMC4 270247Z 15016KT 25/18 A2988 RMK A01 T02530183  RH  065%=      5-min Rain = 0
KMC4 270248Z 15017KT 25/18 A2987 RMK A01 T02520183  RH  065%=      5-min Rain = 0
KMC4 270249Z 14017KT 25/18 A2987 RMK A01 T02520183  RH  065%=      5-min Rain = 0
KMC4 270250Z 15018KT 25/18 A2988 RMK A01 T02510182  RH  066%=      5-min Rain = 0
KMC4 270251Z 14016KT 25/18 A2988 RMK A01 T02510183  RH  066%=      5-min Rain = 0
KMC4 270252Z 14017KT 25/18 A2988 RMK A01 T02500183  RH  066%=      5-min Rain = 0
KMC4 270253Z 14017KT 25/18 A2988 RMK A01 T02490183  RH  067%=      5-min Rain = 0
KMC4 270254Z 14016KT 25/18 A2988 RMK A01 T02490183  RH  067%=      5-min Rain = 0
KMC4 270255Z 14015G20KT 25/18 A2988 RMK A01 T02490182  RH  067%=      5-min Rain = 0
KMC4 270256Z 15015KT 25/18 A2988 RMK A01 T02480182  RH  067%=      5-min Rain = 0
KMC4 270257Z 15016KT 25/18 A2988 RMK A01 T02490183  RH  067%=      5-min Rain = 0
KMC4 270258Z 15014KT 25/18 A2988 RMK A01 T02490183  RH  067%=      5-min Rain = 0
KMC4 270259Z 15015KT 25/18 A2988 RMK A01 T02480183  RH  067%=      5-min Rain = 0
KMC4 270300Z 15018KT 25/18 A2988 RMK A01 T02480183  RH  067%=      5-min Rain = 0
KMC4 270301Z 15016G21KT 25/18 A2988 RMK A01 T02480183  RH  067%=      5-min Rain = 0
KMC4 270302Z 15015KT 25/18 A2988 RMK A01 T02480183  RH  067%=      5-min Rain = 0
KMC4 270303Z 14017KT 25/18 A2988 RMK A01 T02470183  RH  067%=      5-min Rain = 0
KMC4 270304Z 14018G23KT 25/18 A2988 RMK A01 T02470183  RH  067%=      5-min Rain = 0
KMC4 270305Z 15017KT 25/18 A2988 RMK A01 T02470184  RH  068%=      5-min Rain = 0
KMC4 270306Z 15018KT 25/18 A2989 RMK A01 T02470183  RH  068%=      5-min Rain = 0
KMC4 270307Z 15016KT 25/18 A2989 RMK A01 T02470184  RH  068%=      5-min Rain = 0
KMC4 270308Z 15016KT 25/18 A2989 RMK A01 T02460184  RH  068%=      5-min Rain = 0
KMC4 270309Z 15015G20KT 25/18 A2989 RMK A01 T02460184  RH  068%=      5-min Rain = 0
KMC4 270310Z 15015KT 25/18 A2989 RMK A01 T02460184  RH  069%=      5-min Rain = 0
KMC4 270311Z 15017KT 25/18 A2989 RMK A01 T02450184  RH  069%=      5-min Rain = 0
KMC4 270312Z 15016KT 25/18 A2989 RMK A01 T02450184  RH  069%=      5-min Rain = 0
KMC4 270313Z 15016KT 25/19 A2989 RMK A01 T02450185  RH  069%=      5-min Rain = 0
KMC4 270314Z 15019KT 25/18 A2989 RMK A01 T02460184  RH  069%=      5-min Rain = 0
KMC4 270315Z 15015KT 25/19 A2989 RMK A01 T02470185  RH  068%=      5-min Rain = 0
KMC4 270316Z 15016KT 25/19 A2989 RMK A01 T02470186  RH  069%=      5-min Rain = 0
KMC4 270317Z 15015G20KT 25/19 A2989 RMK A01 T02470186  RH  069%=      5-min Rain = 0
KMC4 270318Z 15019KT 25/19 A2989 RMK A01 T02460185  RH  069%=      5-min Rain = 0
KMC4 270319Z 15018KT 25/19 A2989 RMK A01 T02460185  RH  069%=      5-min Rain = 0
KMC4 270320Z 15018KT 25/19 A2989 RMK A01 T02460185  RH  069%=      5-min Rain = 0
KMC4 270321Z 15019KT 25/19 A2989 RMK A01 T02470186  RH  069%=      5-min Rain = 0
KMC4 270322Z 15019KT 25/19 A2989 RMK A01 T02470186  RH  069%=      5-min Rain = 0
KMC4 270323Z 15019KT 25/19 A2989 RMK A01 T02470187  RH  069%=      5-min Rain = 0
KMC4 270324Z 15016KT 25/19 A2989 RMK A01 T02470187  RH  069%=      5-min Rain = 0
KMC4 270325Z 15017KT 25/19 A2989 RMK A01 T02460187  RH  070%=      5-min Rain = 0
KMC4 270326Z 15015G20KT 25/19 A2989 RMK A01 T02460187  RH  070%=      5-min Rain = 0
KMC4 270327Z 15017KT 25/19 A2989 RMK A01 T02460187  RH  070%=      5-min Rain = 0
KMC4 270328Z 15017KT 25/19 A2989 RMK A01 T02460187  RH  070%=      5-min Rain = 0
KMC4 270329Z 15014KT 25/19 A2989 RMK A01 T02460188  RH  070%=      5-min Rain = 0
KMC4 270330Z 15017KT 25/19 A2989 RMK A01 T02460188  RH  070%=      5-min Rain = 0
KMC4 270331Z 15016KT 25/19 A2989 RMK A01 T02450187  RH  070%=      5-min Rain = 0
KMC4 270332Z 15017KT 25/19 A2989 RMK A01 T02450188  RH  070%=      5-min Rain = 0
KMC4 270333Z 15016KT 25/19 A2989 RMK A01 T02460188  RH  070%=      5-min Rain = 0
KMC4 270334Z 15018G23KT 25/19 A2989 RMK A01 T02460188  RH  070%=      5-min Rain = 0
KMC4 270335Z 15015G20KT 25/19 A2989 RMK A01 T02460188  RH  070%=      5-min Rain = 0
KMC4 270336Z 16019KT 25/19 A2989 RMK A01 T02460188  RH  070%=      5-min Rain = 0
KMC4 270337Z 16017KT 25/19 A2989 RMK A01 T02460188  RH  070%=      5-min Rain = 0
KMC4 270338Z 15014KT 25/19 A2989 RMK A01 T02460189  RH  070%=      5-min Rain = 0
KMC4 270339Z 15018G24KT 25/19 A2989 RMK A01 T02460189  RH  071%=      5-min Rain = 0
KMC4 270340Z 15015KT 25/19 A2989 RMK A01 T02450188  RH  071%=      5-min Rain = 0
KMC4 270341Z 15015G20KT 25/19 A2989 RMK A01 T02460189  RH  071%=      5-min Rain = 0
KMC4 270342Z 15018KT 25/19 A2989 RMK A01 T02450189  RH  071%=      5-min Rain = 0
KMC4 270343Z 15017KT 25/19 A2989 RMK A01 T02450189  RH  071%=      5-min Rain = 0
KMC4 270344Z 15016KT 25/19 A2989 RMK A01 T02450189  RH  071%=      5-min Rain = 0
KMC4 270345Z 15020KT 25/19 A2989 RMK A01 T02460189  RH  071%=      5-min Rain = 0
KMC4 270346Z 15018KT 25/19 A2989 RMK A01 T02460189  RH  070%=      5-min Rain = 0
KMC4 270347Z 15017KT 25/19 A2989 RMK A01 T02470189  RH  070%=      5-min Rain = 0
KMC4 270348Z 15014KT 25/19 A2989 RMK A01 T02470189  RH  070%=      5-min Rain = 0
KMC4 270349Z 15015G21KT 25/19 A2989 RMK A01 T02460190  RH  071%=      5-min Rain = 0
KMC4 270350Z 15018KT 25/19 A2988 RMK A01 T02460190  RH  071%=      5-min Rain = 0
KMC4 270351Z 15014KT 25/19 A2988 RMK A01 T02460190  RH  071%=      5-min Rain = 0
KMC4 270352Z 15018KT 25/19 A2988 RMK A01 T02460190  RH  071%=      5-min Rain = 0
KMC4 270353Z 15017KT 25/19 A2988 RMK A01 T02460190  RH  071%=      5-min Rain = 0
KMC4 270354Z 15018KT 25/19 A2988 RMK A01 T02460189  RH  071%=      5-min Rain = 0
KMC4 270355Z 16018G23KT 25/19 A2988 RMK A01 T02470190  RH  070%=      5-min Rain = 0
KMC4 270356Z 15017G23KT 25/19 A2988 RMK A01 T02470189  RH  070%=      5-min Rain = 0
KMC4 270357Z 16016KT 25/19 A2988 RMK A01 T02470190  RH  070%=      5-min Rain = 0
KMC4 270358Z 15018KT 25/19 A2988 RMK A01 T02470190  RH  071%=      5-min Rain = 0
KMC4 270359Z 16019KT 25/19 A2988 RMK A01 T02470190  RH  070%=      5-min Rain = 0
KMC4 270400Z 16017KT 25/19 A2988 RMK A01 T02470190  RH  070%=      5-min Rain = 0
KMC4 270401Z 16022KT 25/19 A2988 RMK A01 T02480190  RH  070%=      5-min Rain = 0
KMC4 270402Z 15019KT 25/19 A2988 RMK A01 T02490190  RH  070%=      5-min Rain = 0
KMC4 270403Z 15018KT 25/19 A2988 RMK A01 T02490190  RH  070%=      5-min Rain = 0
KMC4 270404Z 16016KT 25/19 A2988 RMK A01 T02490190  RH  070%=      5-min Rain = 0
KMC4 270405Z 16016KT 25/19 A2988 RMK A01 T02480190  RH  070%=      5-min Rain = 0
KMC4 270406Z 15017KT 25/19 A2988 RMK A01 T02470190  RH  070%=      5-min Rain = 0
KMC4 270407Z 16018G23KT 25/19 A2988 RMK A01 T02470191  RH  071%=      5-min Rain = 0
KMC4 270408Z 15016G21KT 25/19 A2988 RMK A01 T02470191  RH  071%=      5-min Rain = 0
KMC4 270409Z 15016KT 25/19 A2988 RMK A01 T02460191  RH  071%=      5-min Rain = 0
KMC4 270410Z 15020G25KT 25/19 A2988 RMK A01 T02460190  RH  071%=      5-min Rain = 0
KMC4 270411Z 15018KT 25/19 A2988 RMK A01 T02470190  RH  071%=      5-min Rain = 0
KMC4 270412Z 15018KT 25/19 A2988 RMK A01 T02470190  RH  071%=      5-min Rain = 0
KMC4 270413Z 16020KT 25/19 A2988 RMK A01 T02470191  RH  071%=      5-min Rain = 0
KMC4 270414Z 15018KT 25/19 A2988 RMK A01 T02470190  RH  071%=      5-min Rain = 0
KMC4 270415Z 15019KT 25/19 A2988 RMK A01 T02470190  RH  071%=      5-min Rain = 0
KMC4 270416Z 16019G24KT 25/19 A2988 RMK A01 T02470190  RH  070%=      5-min Rain = 0
KMC4 270417Z 15018KT 25/19 A2988 RMK A01 T02480190  RH  070%=      5-min Rain = 0
KMC4 270418Z 15018KT 25/19 A2988 RMK A01 T02480190  RH  070%=      5-min Rain = 0
KMC4 270419Z 15017G22KT 25/19 A2988 RMK A01 T02480190  RH  070%=      5-min Rain = 0
KMC4 270420Z 16020KT 25/19 A2988 RMK A01 T02480191  RH  071%=      5-min Rain = 0
KMC4 270421Z 15018KT 25/19 A2988 RMK A01 T02480190  RH  070%=      5-min Rain = 0
KMC4 270422Z 15019KT 25/19 A2988 RMK A01 T02480191  RH  070%=      5-min Rain = 0
KMC4 270423Z 16018KT 25/19 A2988 RMK A01 T02480191  RH  070%=      5-min Rain = 0
KMC4 270424Z 15019G24KT 25/19 A2988 RMK A01 T02480190  RH  070%=      5-min Rain = 0
KMC4 270425Z 15019KT 25/19 A2988 RMK A01 T02490190  RH  070%=      5-min Rain = 0
KMC4 270426Z 15020KT 25/19 A2988 RMK A01 T02490190  RH  070%=      5-min Rain = 0
KMC4 270427Z 15019G26KT 25/19 A2988 RMK A01 T02490191  RH  070%=      5-min Rain = 0
KMC4 270428Z 16024G29KT 25/19 A2987 RMK A01 T02490190  RH  070%=      5-min Rain = 0
KMC4 270429Z 15022KT 25/19 A2987 RMK A01 T02510190  RH  069%=      5-min Rain = 0
KMC4 270430Z 15020KT 25/19 A2988 RMK A01 T02520191  RH  069%=      5-min Rain = 0
KMC4 270431Z 15018G23KT 25/19 A2988 RMK A01 T02510191  RH  069%=      5-min Rain = 0
KMC4 270432Z 15023KT 25/19 A2987 RMK A01 T02500191  RH  070%=      5-min Rain = 0
KMC4 270433Z 15022G27KT 25/19 A2987 RMK A01 T02500190  RH  069%=      5-min Rain = 0
KMC4 270434Z 15021KT 25/19 A2987 RMK A01 T02510191  RH  069%=      5-min Rain = 0
KMC4 270435Z 15022G27KT 25/19 A2987 RMK A01 T02500190  RH  069%=      5-min Rain = 0
KMC4 270436Z 15020G25KT 25/19 A2987 RMK A01 T02510190  RH  069%=      5-min Rain = 0
KMC4 270437Z 15020G25KT 25/19 A2988 RMK A01 T02510191  RH  069%=      5-min Rain = 0
KMC4 270438Z 15022G28KT 25/19 A2987 RMK A01 T02510191  RH  069%=      5-min Rain = 0
KMC4 270439Z 15024G30KT 25/19 A2987 RMK A01 T02510190  RH  069%=      5-min Rain = 0
KMC4 270440Z 15021G27KT 25/19 A2987 RMK A01 T02520191  RH  069%=      5-min Rain = 0
KMC4 270441Z 15022KT 25/19 A2987 RMK A01 T02510191  RH  069%=      5-min Rain = 0
KMC4 270442Z 15019KT 25/19 A2987 RMK A01 T02510190  RH  069%=      5-min Rain = 0
KMC4 270443Z 16024G31KT 25/19 A2987 RMK A01 T02510190  RH  069%=      5-min Rain = 0
KMC4 270444Z 16021G26KT 25/19 A2987 RMK A01 T02520190  RH  069%=      5-min Rain = 0
KMC4 270445Z 15019G25KT 25/19 A2987 RMK A01 T02520191  RH  069%=      5-min Rain = 0
KMC4 270446Z 16020G26KT 25/19 A2987 RMK A01 T02510191  RH  069%=      5-min Rain = 0
KMC4 270447Z 16022KT 25/19 A2987 RMK A01 T02510191  RH  069%=      5-min Rain = 0
KMC4 270448Z 15021G26KT 25/19 A2987 RMK A01 T02510190  RH  069%=      5-min Rain = 0
KMC4 270449Z 16022KT 25/19 A2987 RMK A01 T02510191  RH  069%=      5-min Rain = 0
KMC4 270450Z 16022G27KT 25/19 A2987 RMK A01 T02510190  RH  069%=      5-min Rain = 0
KMC4 270451Z 16023KT 25/19 A2987 RMK A01 T02520190  RH  069%=      5-min Rain = 0
KMC4 270452Z 16020KT 25/19 A2987 RMK A01 T02520190  RH  069%=      5-min Rain = 0
KMC4 270453Z 15020KT 25/19 A2987 RMK A01 T02520191  RH  069%=      5-min Rain = 0
KMC4 270454Z 16022KT 25/19 A2987 RMK A01 T02510191  RH  069%=      5-min Rain = 0
KMC4 270455Z 16023G28KT 25/19 A2987 RMK A01 T02510190  RH  069%=      5-min Rain = 0
KMC4 270456Z 15021G27KT 25/19 A2987 RMK A01 T02510191  RH  069%=      5-min Rain = 0
KMC4 270457Z 15022KT 25/19 A2986 RMK A01 T02510190  RH  069%=      5-min Rain = 0
KMC4 270458Z 15020KT 25/19 A2987 RMK A01 T02510191  RH  069%=      5-min Rain = 0
KMC4 270459Z 16022KT 25/19 A2986 RMK A01 T02510191  RH  069%=      5-min Rain = 0

Page generated in 0.1272 seconds.